<?xml version="1.0" encoding="UTF-8" standalone="no" ?>
<gpx xmlns="http://www.topografix.com/GPX/1/1" xmlns:xsi="http://www.w3.org/2001/XMLSchema-instance" xsi:schemaLocation="http://www.topografix.com/GPX/1/1 http://www.topografix.com/GPX/1/1/gpx.xsd" version="1.1" creator="VisuGPX - https://www.visugpx.com">
  <metadata>
    <name>83-M-Sillans la Cascade</name>
    <desc><![CDATA[83-M-Sillans la Cascade :circuit de Jonqueirole _ repas    ]]></desc>
  </metadata>
  <trk>
    <name><![CDATA[2013-12-18-sillans_repas]]></name>
    <trkseg>
      <trkpt lat="43.56822" lon="6.18172">
        <ele>355.2</ele>
        <time>2013-12-18T08:31:43Z</time>
      </trkpt>
      <trkpt lat="43.5682" lon="6.18161">
        <ele>356.8</ele>
        <time>2013-12-18T08:34:12Z</time>
      </trkpt>
      <trkpt lat="43.56819" lon="6.1816">
        <ele>357</ele>
        <time>2013-12-18T08:34:13Z</time>
      </trkpt>
      <trkpt lat="43.56817" lon="6.18172">
        <ele>357.6</ele>
        <time>2013-12-18T08:35:54Z</time>
      </trkpt>
      <trkpt lat="43.56818" lon="6.18171">
        <ele>357</ele>
        <time>2013-12-18T08:38:01Z</time>
      </trkpt>
      <trkpt lat="43.56819" lon="6.18172">
        <ele>357.2</ele>
        <time>2013-12-18T08:38:02Z</time>
      </trkpt>
      <trkpt lat="43.5683" lon="6.18186">
        <ele>356.8</ele>
        <time>2013-12-18T08:38:18Z</time>
      </trkpt>
      <trkpt lat="43.56838" lon="6.18185">
        <ele>356</ele>
        <time>2013-12-18T08:38:24Z</time>
      </trkpt>
      <trkpt lat="43.56844" lon="6.18178">
        <ele>356.2</ele>
        <time>2013-12-18T08:38:30Z</time>
      </trkpt>
      <trkpt lat="43.56852" lon="6.18172">
        <ele>356.2</ele>
        <time>2013-12-18T08:38:37Z</time>
      </trkpt>
      <trkpt lat="43.5686" lon="6.18167">
        <ele>355.6</ele>
        <time>2013-12-18T08:38:44Z</time>
      </trkpt>
      <trkpt lat="43.56866" lon="6.18158">
        <ele>355</ele>
        <time>2013-12-18T08:38:52Z</time>
      </trkpt>
      <trkpt lat="43.56869" lon="6.18147">
        <ele>355.3</ele>
        <time>2013-12-18T08:39:01Z</time>
      </trkpt>
      <trkpt lat="43.5687" lon="6.18135">
        <ele>355.5</ele>
        <time>2013-12-18T08:39:12Z</time>
      </trkpt>
      <trkpt lat="43.56871" lon="6.18134">
        <ele>355.2</ele>
        <time>2013-12-18T08:39:13Z</time>
      </trkpt>
      <trkpt lat="43.56885" lon="6.18124">
        <ele>354.3</ele>
        <time>2013-12-18T08:39:43Z</time>
      </trkpt>
      <trkpt lat="43.5689" lon="6.18117">
        <ele>354.7</ele>
        <time>2013-12-18T08:40:04Z</time>
      </trkpt>
      <trkpt lat="43.56893" lon="6.18106">
        <ele>354.5</ele>
        <time>2013-12-18T08:40:09Z</time>
      </trkpt>
      <trkpt lat="43.56897" lon="6.18095">
        <ele>354.6</ele>
        <time>2013-12-18T08:40:14Z</time>
      </trkpt>
      <trkpt lat="43.56897" lon="6.18092">
        <ele>354.6</ele>
        <time>2013-12-18T08:40:15Z</time>
      </trkpt>
      <trkpt lat="43.56898" lon="6.18072">
        <ele>353.7</ele>
        <time>2013-12-18T08:40:27Z</time>
      </trkpt>
      <trkpt lat="43.56899" lon="6.1806">
        <ele>353.5</ele>
        <time>2013-12-18T08:40:32Z</time>
      </trkpt>
      <trkpt lat="43.56901" lon="6.1805">
        <ele>354.3</ele>
        <time>2013-12-18T08:40:37Z</time>
      </trkpt>
      <trkpt lat="43.56903" lon="6.1804">
        <ele>354.2</ele>
        <time>2013-12-18T08:40:41Z</time>
      </trkpt>
      <trkpt lat="43.56905" lon="6.18029">
        <ele>353.2</ele>
        <time>2013-12-18T08:40:46Z</time>
      </trkpt>
      <trkpt lat="43.5691" lon="6.1802">
        <ele>353.5</ele>
        <time>2013-12-18T08:40:51Z</time>
      </trkpt>
      <trkpt lat="43.56915" lon="6.18011">
        <ele>353.3</ele>
        <time>2013-12-18T08:40:56Z</time>
      </trkpt>
      <trkpt lat="43.56917" lon="6.18001">
        <ele>353.3</ele>
        <time>2013-12-18T08:41:02Z</time>
      </trkpt>
      <trkpt lat="43.56917" lon="6.17989">
        <ele>352.8</ele>
        <time>2013-12-18T08:41:09Z</time>
      </trkpt>
      <trkpt lat="43.56915" lon="6.17978">
        <ele>351.2</ele>
        <time>2013-12-18T08:41:19Z</time>
      </trkpt>
      <trkpt lat="43.56915" lon="6.17976">
        <ele>351.2</ele>
        <time>2013-12-18T08:41:20Z</time>
      </trkpt>
      <trkpt lat="43.56916" lon="6.17956">
        <ele>350.9</ele>
        <time>2013-12-18T08:41:36Z</time>
      </trkpt>
      <trkpt lat="43.56911" lon="6.17946">
        <ele>352.6</ele>
        <time>2013-12-18T08:41:49Z</time>
      </trkpt>
      <trkpt lat="43.56912" lon="6.17934">
        <ele>352.7</ele>
        <time>2013-12-18T08:41:59Z</time>
      </trkpt>
      <trkpt lat="43.56909" lon="6.17922">
        <ele>353.4</ele>
        <time>2013-12-18T08:42:07Z</time>
      </trkpt>
      <trkpt lat="43.56906" lon="6.17911">
        <ele>353.3</ele>
        <time>2013-12-18T08:42:17Z</time>
      </trkpt>
      <trkpt lat="43.56906" lon="6.179">
        <ele>353.9</ele>
        <time>2013-12-18T08:42:25Z</time>
      </trkpt>
      <trkpt lat="43.56905" lon="6.17898">
        <ele>353.9</ele>
        <time>2013-12-18T08:42:26Z</time>
      </trkpt>
      <trkpt lat="43.56906" lon="6.17875">
        <ele>353.7</ele>
        <time>2013-12-18T08:42:41Z</time>
      </trkpt>
      <trkpt lat="43.56905" lon="6.17864">
        <ele>354.2</ele>
        <time>2013-12-18T08:42:50Z</time>
      </trkpt>
      <trkpt lat="43.56901" lon="6.17853">
        <ele>354.4</ele>
        <time>2013-12-18T08:42:56Z</time>
      </trkpt>
      <trkpt lat="43.56897" lon="6.17843">
        <ele>355.6</ele>
        <time>2013-12-18T08:43:08Z</time>
      </trkpt>
      <trkpt lat="43.5689" lon="6.17836">
        <ele>355.1</ele>
        <time>2013-12-18T08:43:17Z</time>
      </trkpt>
      <trkpt lat="43.56883" lon="6.17828">
        <ele>355.2</ele>
        <time>2013-12-18T08:43:25Z</time>
      </trkpt>
      <trkpt lat="43.56878" lon="6.17819">
        <ele>355.7</ele>
        <time>2013-12-18T08:43:33Z</time>
      </trkpt>
      <trkpt lat="43.56878" lon="6.17818">
        <ele>355.8</ele>
        <time>2013-12-18T08:43:34Z</time>
      </trkpt>
      <trkpt lat="43.56866" lon="6.17804">
        <ele>355.2</ele>
        <time>2013-12-18T08:43:52Z</time>
      </trkpt>
      <trkpt lat="43.56867" lon="6.17794">
        <ele>355.6</ele>
        <time>2013-12-18T08:43:57Z</time>
      </trkpt>
      <trkpt lat="43.56867" lon="6.17782">
        <ele>355.7</ele>
        <time>2013-12-18T08:44:05Z</time>
      </trkpt>
      <trkpt lat="43.5687" lon="6.17772">
        <ele>356.3</ele>
        <time>2013-12-18T08:44:10Z</time>
      </trkpt>
      <trkpt lat="43.56877" lon="6.17764">
        <ele>356.4</ele>
        <time>2013-12-18T08:44:17Z</time>
      </trkpt>
      <trkpt lat="43.56874" lon="6.17753">
        <ele>355.8</ele>
        <time>2013-12-18T08:44:23Z</time>
      </trkpt>
      <trkpt lat="43.56875" lon="6.17741">
        <ele>355.5</ele>
        <time>2013-12-18T08:44:40Z</time>
      </trkpt>
      <trkpt lat="43.56875" lon="6.17741">
        <ele>355.4</ele>
        <time>2013-12-18T08:44:41Z</time>
      </trkpt>
      <trkpt lat="43.5687" lon="6.17718">
        <ele>352.4</ele>
        <time>2013-12-18T08:45:53Z</time>
      </trkpt>
      <trkpt lat="43.5687" lon="6.17717">
        <ele>352.3</ele>
        <time>2013-12-18T08:45:54Z</time>
      </trkpt>
      <trkpt lat="43.56855" lon="6.17716">
        <ele>358.5</ele>
        <time>2013-12-18T08:46:39Z</time>
      </trkpt>
      <trkpt lat="43.5685" lon="6.17706">
        <ele>360</ele>
        <time>2013-12-18T08:46:52Z</time>
      </trkpt>
      <trkpt lat="43.56848" lon="6.17694">
        <ele>360.1</ele>
        <time>2013-12-18T08:48:43Z</time>
      </trkpt>
      <trkpt lat="43.56848" lon="6.17693">
        <ele>360.1</ele>
        <time>2013-12-18T08:48:44Z</time>
      </trkpt>
      <trkpt lat="43.56845" lon="6.1767">
        <ele>360.3</ele>
        <time>2013-12-18T08:49:22Z</time>
      </trkpt>
      <trkpt lat="43.56845" lon="6.17659">
        <ele>360.1</ele>
        <time>2013-12-18T08:49:36Z</time>
      </trkpt>
      <trkpt lat="43.56843" lon="6.17647">
        <ele>359.8</ele>
        <time>2013-12-18T08:49:47Z</time>
      </trkpt>
      <trkpt lat="43.56843" lon="6.17646">
        <ele>359.8</ele>
        <time>2013-12-18T08:49:48Z</time>
      </trkpt>
      <trkpt lat="43.56843" lon="6.17622">
        <ele>360.2</ele>
        <time>2013-12-18T08:50:04Z</time>
      </trkpt>
      <trkpt lat="43.56843" lon="6.17611">
        <ele>360.2</ele>
        <time>2013-12-18T08:50:12Z</time>
      </trkpt>
      <trkpt lat="43.56843" lon="6.17599">
        <ele>361.1</ele>
        <time>2013-12-18T08:50:20Z</time>
      </trkpt>
      <trkpt lat="43.56842" lon="6.17588">
        <ele>360.2</ele>
        <time>2013-12-18T08:50:28Z</time>
      </trkpt>
      <trkpt lat="43.56844" lon="6.17576">
        <ele>360.6</ele>
        <time>2013-12-18T08:50:35Z</time>
      </trkpt>
      <trkpt lat="43.56844" lon="6.17565">
        <ele>360.7</ele>
        <time>2013-12-18T08:50:46Z</time>
      </trkpt>
      <trkpt lat="43.56847" lon="6.17555">
        <ele>361</ele>
        <time>2013-12-18T08:50:52Z</time>
      </trkpt>
      <trkpt lat="43.56847" lon="6.17553">
        <ele>361</ele>
        <time>2013-12-18T08:50:53Z</time>
      </trkpt>
      <trkpt lat="43.56853" lon="6.17533">
        <ele>360.7</ele>
        <time>2013-12-18T08:51:06Z</time>
      </trkpt>
      <trkpt lat="43.56854" lon="6.17521">
        <ele>360.9</ele>
        <time>2013-12-18T08:51:15Z</time>
      </trkpt>
      <trkpt lat="43.56857" lon="6.17511">
        <ele>361</ele>
        <time>2013-12-18T08:51:22Z</time>
      </trkpt>
      <trkpt lat="43.56862" lon="6.17501">
        <ele>360.4</ele>
        <time>2013-12-18T08:51:35Z</time>
      </trkpt>
      <trkpt lat="43.56871" lon="6.175">
        <ele>359.6</ele>
        <time>2013-12-18T08:51:47Z</time>
      </trkpt>
      <trkpt lat="43.5688" lon="6.17499">
        <ele>358.4</ele>
        <time>2013-12-18T08:51:55Z</time>
      </trkpt>
      <trkpt lat="43.56881" lon="6.17499">
        <ele>358.6</ele>
        <time>2013-12-18T08:51:56Z</time>
      </trkpt>
      <trkpt lat="43.56895" lon="6.17498">
        <ele>357.2</ele>
        <time>2013-12-18T08:52:17Z</time>
      </trkpt>
      <trkpt lat="43.56904" lon="6.17501">
        <ele>356.9</ele>
        <time>2013-12-18T08:52:24Z</time>
      </trkpt>
      <trkpt lat="43.56912" lon="6.175">
        <ele>357.1</ele>
        <time>2013-12-18T08:52:30Z</time>
      </trkpt>
      <trkpt lat="43.5692" lon="6.17496">
        <ele>356.8</ele>
        <time>2013-12-18T08:52:37Z</time>
      </trkpt>
      <trkpt lat="43.56927" lon="6.17494">
        <ele>356.9</ele>
        <time>2013-12-18T08:52:42Z</time>
      </trkpt>
      <trkpt lat="43.56936" lon="6.17491">
        <ele>356.4</ele>
        <time>2013-12-18T08:52:48Z</time>
      </trkpt>
      <trkpt lat="43.56944" lon="6.17486">
        <ele>356.3</ele>
        <time>2013-12-18T08:52:53Z</time>
      </trkpt>
      <trkpt lat="43.56952" lon="6.17483">
        <ele>356.2</ele>
        <time>2013-12-18T08:52:59Z</time>
      </trkpt>
      <trkpt lat="43.56954" lon="6.17482">
        <ele>356.5</ele>
        <time>2013-12-18T08:53:00Z</time>
      </trkpt>
      <trkpt lat="43.56968" lon="6.1748">
        <ele>356.2</ele>
        <time>2013-12-18T08:53:11Z</time>
      </trkpt>
      <trkpt lat="43.56975" lon="6.17476">
        <ele>356.1</ele>
        <time>2013-12-18T08:53:16Z</time>
      </trkpt>
      <trkpt lat="43.56984" lon="6.17474">
        <ele>356.5</ele>
        <time>2013-12-18T08:53:23Z</time>
      </trkpt>
      <trkpt lat="43.56992" lon="6.17472">
        <ele>356.4</ele>
        <time>2013-12-18T08:53:29Z</time>
      </trkpt>
      <trkpt lat="43.57" lon="6.17471">
        <ele>356</ele>
        <time>2013-12-18T08:53:36Z</time>
      </trkpt>
      <trkpt lat="43.57009" lon="6.17468">
        <ele>356.8</ele>
        <time>2013-12-18T08:53:44Z</time>
      </trkpt>
      <trkpt lat="43.57016" lon="6.17465">
        <ele>357.5</ele>
        <time>2013-12-18T08:53:49Z</time>
      </trkpt>
      <trkpt lat="43.57024" lon="6.17462">
        <ele>357.9</ele>
        <time>2013-12-18T08:53:55Z</time>
      </trkpt>
      <trkpt lat="43.57032" lon="6.1746">
        <ele>358.8</ele>
        <time>2013-12-18T08:54:01Z</time>
      </trkpt>
      <trkpt lat="43.57033" lon="6.1746">
        <ele>358.9</ele>
        <time>2013-12-18T08:54:02Z</time>
      </trkpt>
      <trkpt lat="43.57049" lon="6.17454">
        <ele>358.3</ele>
        <time>2013-12-18T08:54:16Z</time>
      </trkpt>
      <trkpt lat="43.57057" lon="6.17451">
        <ele>358.7</ele>
        <time>2013-12-18T08:54:22Z</time>
      </trkpt>
      <trkpt lat="43.57064" lon="6.17449">
        <ele>358.8</ele>
        <time>2013-12-18T08:54:29Z</time>
      </trkpt>
      <trkpt lat="43.57073" lon="6.17447">
        <ele>359</ele>
        <time>2013-12-18T08:54:36Z</time>
      </trkpt>
      <trkpt lat="43.57081" lon="6.17444">
        <ele>358.9</ele>
        <time>2013-12-18T08:54:43Z</time>
      </trkpt>
      <trkpt lat="43.57089" lon="6.17443">
        <ele>359.4</ele>
        <time>2013-12-18T08:54:51Z</time>
      </trkpt>
      <trkpt lat="43.57097" lon="6.17438">
        <ele>359.2</ele>
        <time>2013-12-18T08:54:58Z</time>
      </trkpt>
      <trkpt lat="43.57106" lon="6.17436">
        <ele>359.3</ele>
        <time>2013-12-18T08:55:39Z</time>
      </trkpt>
      <trkpt lat="43.57107" lon="6.17436">
        <ele>359.4</ele>
        <time>2013-12-18T08:55:40Z</time>
      </trkpt>
      <trkpt lat="43.57123" lon="6.17431">
        <ele>359.1</ele>
        <time>2013-12-18T08:55:52Z</time>
      </trkpt>
      <trkpt lat="43.57131" lon="6.17428">
        <ele>359.6</ele>
        <time>2013-12-18T08:55:59Z</time>
      </trkpt>
      <trkpt lat="43.57139" lon="6.17426">
        <ele>359.5</ele>
        <time>2013-12-18T08:56:04Z</time>
      </trkpt>
      <trkpt lat="43.57147" lon="6.17421">
        <ele>359.7</ele>
        <time>2013-12-18T08:56:14Z</time>
      </trkpt>
      <trkpt lat="43.57154" lon="6.17417">
        <ele>360.4</ele>
        <time>2013-12-18T08:56:19Z</time>
      </trkpt>
      <trkpt lat="43.57161" lon="6.17414">
        <ele>360.1</ele>
        <time>2013-12-18T08:56:24Z</time>
      </trkpt>
      <trkpt lat="43.57169" lon="6.17411">
        <ele>359.8</ele>
        <time>2013-12-18T08:56:29Z</time>
      </trkpt>
      <trkpt lat="43.57177" lon="6.17412">
        <ele>359.8</ele>
        <time>2013-12-18T08:56:34Z</time>
      </trkpt>
      <trkpt lat="43.57185" lon="6.17411">
        <ele>359.4</ele>
        <time>2013-12-18T08:56:40Z</time>
      </trkpt>
      <trkpt lat="43.57186" lon="6.17411">
        <ele>359.3</ele>
        <time>2013-12-18T08:56:41Z</time>
      </trkpt>
      <trkpt lat="43.57202" lon="6.17407">
        <ele>360</ele>
        <time>2013-12-18T08:56:52Z</time>
      </trkpt>
      <trkpt lat="43.57209" lon="6.17405">
        <ele>360.4</ele>
        <time>2013-12-18T08:56:58Z</time>
      </trkpt>
      <trkpt lat="43.57217" lon="6.17402">
        <ele>360.5</ele>
        <time>2013-12-18T08:57:03Z</time>
      </trkpt>
      <trkpt lat="43.57225" lon="6.174">
        <ele>360.8</ele>
        <time>2013-12-18T08:57:09Z</time>
      </trkpt>
      <trkpt lat="43.57234" lon="6.17401">
        <ele>360.8</ele>
        <time>2013-12-18T08:57:15Z</time>
      </trkpt>
      <trkpt lat="43.57243" lon="6.17399">
        <ele>361.1</ele>
        <time>2013-12-18T08:57:22Z</time>
      </trkpt>
      <trkpt lat="43.5725" lon="6.17394">
        <ele>361.5</ele>
        <time>2013-12-18T08:57:28Z</time>
      </trkpt>
      <trkpt lat="43.57258" lon="6.17389">
        <ele>362.7</ele>
        <time>2013-12-18T08:57:35Z</time>
      </trkpt>
      <trkpt lat="43.57267" lon="6.17388">
        <ele>364.4</ele>
        <time>2013-12-18T08:57:46Z</time>
      </trkpt>
      <trkpt lat="43.57268" lon="6.17387">
        <ele>364.3</ele>
        <time>2013-12-18T08:57:47Z</time>
      </trkpt>
      <trkpt lat="43.57282" lon="6.17379">
        <ele>365.6</ele>
        <time>2013-12-18T08:57:59Z</time>
      </trkpt>
      <trkpt lat="43.57288" lon="6.17373">
        <ele>365.9</ele>
        <time>2013-12-18T08:58:05Z</time>
      </trkpt>
      <trkpt lat="43.57294" lon="6.17366">
        <ele>365.7</ele>
        <time>2013-12-18T08:58:09Z</time>
      </trkpt>
      <trkpt lat="43.57302" lon="6.17361">
        <ele>365.7</ele>
        <time>2013-12-18T08:58:14Z</time>
      </trkpt>
      <trkpt lat="43.5731" lon="6.17356">
        <ele>365.3</ele>
        <time>2013-12-18T08:58:25Z</time>
      </trkpt>
      <trkpt lat="43.57316" lon="6.17348">
        <ele>365.3</ele>
        <time>2013-12-18T08:58:32Z</time>
      </trkpt>
      <trkpt lat="43.57322" lon="6.17343">
        <ele>365.4</ele>
        <time>2013-12-18T08:58:36Z</time>
      </trkpt>
      <trkpt lat="43.5733" lon="6.17339">
        <ele>365.5</ele>
        <time>2013-12-18T08:58:41Z</time>
      </trkpt>
      <trkpt lat="43.57337" lon="6.17336">
        <ele>365</ele>
        <time>2013-12-18T08:58:49Z</time>
      </trkpt>
      <trkpt lat="43.57339" lon="6.17335">
        <ele>365</ele>
        <time>2013-12-18T08:58:50Z</time>
      </trkpt>
      <trkpt lat="43.57353" lon="6.17325">
        <ele>364.6</ele>
        <time>2013-12-18T08:59:02Z</time>
      </trkpt>
      <trkpt lat="43.5736" lon="6.17318">
        <ele>364.8</ele>
        <time>2013-12-18T08:59:08Z</time>
      </trkpt>
      <trkpt lat="43.57366" lon="6.1731">
        <ele>364.7</ele>
        <time>2013-12-18T08:59:16Z</time>
      </trkpt>
      <trkpt lat="43.5737" lon="6.17299">
        <ele>364.8</ele>
        <time>2013-12-18T08:59:23Z</time>
      </trkpt>
      <trkpt lat="43.57374" lon="6.1729">
        <ele>365.4</ele>
        <time>2013-12-18T08:59:31Z</time>
      </trkpt>
      <trkpt lat="43.57377" lon="6.17279">
        <ele>365.5</ele>
        <time>2013-12-18T08:59:39Z</time>
      </trkpt>
      <trkpt lat="43.57381" lon="6.17268">
        <ele>366</ele>
        <time>2013-12-18T08:59:47Z</time>
      </trkpt>
      <trkpt lat="43.57384" lon="6.17257">
        <ele>365.9</ele>
        <time>2013-12-18T08:59:54Z</time>
      </trkpt>
      <trkpt lat="43.57385" lon="6.17256">
        <ele>365.7</ele>
        <time>2013-12-18T08:59:55Z</time>
      </trkpt>
      <trkpt lat="43.57386" lon="6.17236">
        <ele>367.2</ele>
        <time>2013-12-18T09:00:09Z</time>
      </trkpt>
      <trkpt lat="43.57385" lon="6.17225">
        <ele>367.6</ele>
        <time>2013-12-18T09:00:16Z</time>
      </trkpt>
      <trkpt lat="43.57381" lon="6.17215">
        <ele>368.2</ele>
        <time>2013-12-18T09:00:23Z</time>
      </trkpt>
      <trkpt lat="43.57378" lon="6.17204">
        <ele>369</ele>
        <time>2013-12-18T09:00:33Z</time>
      </trkpt>
      <trkpt lat="43.57375" lon="6.17194">
        <ele>369.9</ele>
        <time>2013-12-18T09:00:40Z</time>
      </trkpt>
      <trkpt lat="43.57372" lon="6.17183">
        <ele>369.6</ele>
        <time>2013-12-18T09:00:46Z</time>
      </trkpt>
      <trkpt lat="43.57371" lon="6.17172">
        <ele>369.3</ele>
        <time>2013-12-18T09:00:52Z</time>
      </trkpt>
      <trkpt lat="43.57371" lon="6.1716">
        <ele>369.8</ele>
        <time>2013-12-18T09:01:01Z</time>
      </trkpt>
      <trkpt lat="43.57372" lon="6.17159">
        <ele>369.7</ele>
        <time>2013-12-18T09:01:02Z</time>
      </trkpt>
      <trkpt lat="43.57369" lon="6.17137">
        <ele>370.5</ele>
        <time>2013-12-18T09:01:16Z</time>
      </trkpt>
      <trkpt lat="43.57365" lon="6.17128">
        <ele>370.3</ele>
        <time>2013-12-18T09:01:22Z</time>
      </trkpt>
      <trkpt lat="43.57359" lon="6.17119">
        <ele>371</ele>
        <time>2013-12-18T09:01:29Z</time>
      </trkpt>
      <trkpt lat="43.57353" lon="6.1711">
        <ele>371.6</ele>
        <time>2013-12-18T09:01:36Z</time>
      </trkpt>
      <trkpt lat="43.57346" lon="6.17103">
        <ele>372</ele>
        <time>2013-12-18T09:01:44Z</time>
      </trkpt>
      <trkpt lat="43.57342" lon="6.17093">
        <ele>373.1</ele>
        <time>2013-12-18T09:01:52Z</time>
      </trkpt>
      <trkpt lat="43.57341" lon="6.17081">
        <ele>373.7</ele>
        <time>2013-12-18T09:02:01Z</time>
      </trkpt>
      <trkpt lat="43.57345" lon="6.17072">
        <ele>374.6</ele>
        <time>2013-12-18T09:02:10Z</time>
      </trkpt>
      <trkpt lat="43.57346" lon="6.17071">
        <ele>374.6</ele>
        <time>2013-12-18T09:02:11Z</time>
      </trkpt>
      <trkpt lat="43.57357" lon="6.17056">
        <ele>375</ele>
        <time>2013-12-18T09:02:23Z</time>
      </trkpt>
      <trkpt lat="43.57362" lon="6.17048">
        <ele>375.1</ele>
        <time>2013-12-18T09:02:30Z</time>
      </trkpt>
      <trkpt lat="43.57367" lon="6.1704">
        <ele>375.3</ele>
        <time>2013-12-18T09:02:37Z</time>
      </trkpt>
      <trkpt lat="43.57372" lon="6.17031">
        <ele>375.2</ele>
        <time>2013-12-18T09:02:45Z</time>
      </trkpt>
      <trkpt lat="43.57377" lon="6.17021">
        <ele>375.5</ele>
        <time>2013-12-18T09:02:52Z</time>
      </trkpt>
      <trkpt lat="43.57378" lon="6.17009">
        <ele>376.6</ele>
        <time>2013-12-18T09:03:00Z</time>
      </trkpt>
      <trkpt lat="43.57377" lon="6.16997">
        <ele>377.3</ele>
        <time>2013-12-18T09:03:10Z</time>
      </trkpt>
      <trkpt lat="43.57379" lon="6.16985">
        <ele>377.6</ele>
        <time>2013-12-18T09:03:19Z</time>
      </trkpt>
      <trkpt lat="43.57379" lon="6.16984">
        <ele>377.6</ele>
        <time>2013-12-18T09:03:20Z</time>
      </trkpt>
      <trkpt lat="43.57387" lon="6.16964">
        <ele>379.2</ele>
        <time>2013-12-18T09:03:36Z</time>
      </trkpt>
      <trkpt lat="43.57394" lon="6.16957">
        <ele>380.3</ele>
        <time>2013-12-18T09:03:47Z</time>
      </trkpt>
      <trkpt lat="43.57402" lon="6.16951">
        <ele>382.3</ele>
        <time>2013-12-18T09:03:58Z</time>
      </trkpt>
      <trkpt lat="43.57409" lon="6.16946">
        <ele>383.5</ele>
        <time>2013-12-18T09:04:08Z</time>
      </trkpt>
      <trkpt lat="43.57418" lon="6.16943">
        <ele>384.5</ele>
        <time>2013-12-18T09:04:17Z</time>
      </trkpt>
      <trkpt lat="43.57426" lon="6.16947">
        <ele>385.3</ele>
        <time>2013-12-18T09:04:29Z</time>
      </trkpt>
      <trkpt lat="43.57427" lon="6.16947">
        <ele>385.3</ele>
        <time>2013-12-18T09:04:30Z</time>
      </trkpt>
      <trkpt lat="43.57443" lon="6.16943">
        <ele>386.9</ele>
        <time>2013-12-18T09:04:48Z</time>
      </trkpt>
      <trkpt lat="43.57448" lon="6.16934">
        <ele>387.7</ele>
        <time>2013-12-18T09:04:55Z</time>
      </trkpt>
      <trkpt lat="43.57452" lon="6.16923">
        <ele>388.3</ele>
        <time>2013-12-18T09:05:02Z</time>
      </trkpt>
      <trkpt lat="43.57456" lon="6.16914">
        <ele>388.7</ele>
        <time>2013-12-18T09:05:10Z</time>
      </trkpt>
      <trkpt lat="43.57461" lon="6.16903">
        <ele>390.4</ele>
        <time>2013-12-18T09:05:24Z</time>
      </trkpt>
      <trkpt lat="43.57466" lon="6.16894">
        <ele>391.8</ele>
        <time>2013-12-18T09:05:37Z</time>
      </trkpt>
      <trkpt lat="43.57466" lon="6.16893">
        <ele>391.9</ele>
        <time>2013-12-18T09:05:38Z</time>
      </trkpt>
      <trkpt lat="43.57482" lon="6.16884">
        <ele>394.4</ele>
        <time>2013-12-18T09:05:57Z</time>
      </trkpt>
      <trkpt lat="43.57489" lon="6.16878">
        <ele>395.1</ele>
        <time>2013-12-18T09:06:06Z</time>
      </trkpt>
      <trkpt lat="43.57498" lon="6.16876">
        <ele>396.3</ele>
        <time>2013-12-18T09:06:16Z</time>
      </trkpt>
      <trkpt lat="43.57506" lon="6.1688">
        <ele>397.7</ele>
        <time>2013-12-18T09:06:30Z</time>
      </trkpt>
      <trkpt lat="43.57514" lon="6.16886">
        <ele>398.3</ele>
        <time>2013-12-18T09:06:38Z</time>
      </trkpt>
      <trkpt lat="43.57515" lon="6.16886">
        <ele>398.3</ele>
        <time>2013-12-18T09:06:39Z</time>
      </trkpt>
      <trkpt lat="43.57529" lon="6.16896">
        <ele>399.2</ele>
        <time>2013-12-18T09:06:54Z</time>
      </trkpt>
      <trkpt lat="43.57537" lon="6.16898">
        <ele>399.1</ele>
        <time>2013-12-18T09:07:01Z</time>
      </trkpt>
      <trkpt lat="43.57545" lon="6.16899">
        <ele>399.7</ele>
        <time>2013-12-18T09:07:07Z</time>
      </trkpt>
      <trkpt lat="43.57553" lon="6.16897">
        <ele>400</ele>
        <time>2013-12-18T09:07:15Z</time>
      </trkpt>
      <trkpt lat="43.57562" lon="6.16895">
        <ele>399.2</ele>
        <time>2013-12-18T09:07:24Z</time>
      </trkpt>
      <trkpt lat="43.57571" lon="6.16891">
        <ele>399.3</ele>
        <time>2013-12-18T09:07:31Z</time>
      </trkpt>
      <trkpt lat="43.57578" lon="6.16886">
        <ele>398.8</ele>
        <time>2013-12-18T09:07:40Z</time>
      </trkpt>
      <trkpt lat="43.57579" lon="6.16885">
        <ele>398.4</ele>
        <time>2013-12-18T09:07:41Z</time>
      </trkpt>
      <trkpt lat="43.57594" lon="6.1688">
        <ele>397.4</ele>
        <time>2013-12-18T09:07:56Z</time>
      </trkpt>
      <trkpt lat="43.576" lon="6.16872">
        <ele>396.8</ele>
        <time>2013-12-18T09:08:02Z</time>
      </trkpt>
      <trkpt lat="43.57604" lon="6.16864">
        <ele>396.9</ele>
        <time>2013-12-18T09:08:09Z</time>
      </trkpt>
      <trkpt lat="43.57607" lon="6.16852">
        <ele>396.9</ele>
        <time>2013-12-18T09:08:16Z</time>
      </trkpt>
      <trkpt lat="43.57613" lon="6.16844">
        <ele>397.5</ele>
        <time>2013-12-18T09:08:25Z</time>
      </trkpt>
      <trkpt lat="43.57619" lon="6.16836">
        <ele>397.5</ele>
        <time>2013-12-18T09:08:31Z</time>
      </trkpt>
      <trkpt lat="43.57623" lon="6.16825">
        <ele>397.7</ele>
        <time>2013-12-18T09:08:37Z</time>
      </trkpt>
      <trkpt lat="43.57625" lon="6.16814">
        <ele>397.7</ele>
        <time>2013-12-18T09:08:47Z</time>
      </trkpt>
      <trkpt lat="43.57625" lon="6.16812">
        <ele>397.7</ele>
        <time>2013-12-18T09:08:48Z</time>
      </trkpt>
      <trkpt lat="43.57632" lon="6.16794">
        <ele>398</ele>
        <time>2013-12-18T09:09:00Z</time>
      </trkpt>
      <trkpt lat="43.57636" lon="6.16784">
        <ele>398.3</ele>
        <time>2013-12-18T09:09:07Z</time>
      </trkpt>
      <trkpt lat="43.5764" lon="6.16774">
        <ele>398.9</ele>
        <time>2013-12-18T09:09:13Z</time>
      </trkpt>
      <trkpt lat="43.57642" lon="6.16763">
        <ele>399.1</ele>
        <time>2013-12-18T09:09:20Z</time>
      </trkpt>
      <trkpt lat="43.57645" lon="6.16753">
        <ele>399.3</ele>
        <time>2013-12-18T09:09:27Z</time>
      </trkpt>
      <trkpt lat="43.57648" lon="6.16744">
        <ele>399.7</ele>
        <time>2013-12-18T09:09:34Z</time>
      </trkpt>
      <trkpt lat="43.57654" lon="6.16735">
        <ele>399.6</ele>
        <time>2013-12-18T09:09:42Z</time>
      </trkpt>
      <trkpt lat="43.57659" lon="6.16726">
        <ele>400.4</ele>
        <time>2013-12-18T09:09:51Z</time>
      </trkpt>
      <trkpt lat="43.5766" lon="6.16726">
        <ele>400.3</ele>
        <time>2013-12-18T09:09:52Z</time>
      </trkpt>
      <trkpt lat="43.5767" lon="6.1671">
        <ele>400.9</ele>
        <time>2013-12-18T09:10:08Z</time>
      </trkpt>
      <trkpt lat="43.57675" lon="6.167">
        <ele>401.1</ele>
        <time>2013-12-18T09:10:15Z</time>
      </trkpt>
      <trkpt lat="43.57678" lon="6.1669">
        <ele>402.1</ele>
        <time>2013-12-18T09:10:22Z</time>
      </trkpt>
      <trkpt lat="43.57685" lon="6.16682">
        <ele>402.3</ele>
        <time>2013-12-18T09:10:27Z</time>
      </trkpt>
      <trkpt lat="43.5769" lon="6.16672">
        <ele>401.7</ele>
        <time>2013-12-18T09:10:35Z</time>
      </trkpt>
      <trkpt lat="43.57693" lon="6.1666">
        <ele>402.4</ele>
        <time>2013-12-18T09:10:45Z</time>
      </trkpt>
      <trkpt lat="43.57697" lon="6.16651">
        <ele>402.9</ele>
        <time>2013-12-18T09:10:53Z</time>
      </trkpt>
      <trkpt lat="43.57697" lon="6.16649">
        <ele>403.1</ele>
        <time>2013-12-18T09:10:54Z</time>
      </trkpt>
      <trkpt lat="43.57707" lon="6.16633">
        <ele>403</ele>
        <time>2013-12-18T09:11:07Z</time>
      </trkpt>
      <trkpt lat="43.5771" lon="6.16623">
        <ele>403.4</ele>
        <time>2013-12-18T09:11:14Z</time>
      </trkpt>
      <trkpt lat="43.57713" lon="6.16611">
        <ele>403.6</ele>
        <time>2013-12-18T09:11:22Z</time>
      </trkpt>
      <trkpt lat="43.57719" lon="6.16602">
        <ele>405</ele>
        <time>2013-12-18T09:11:34Z</time>
      </trkpt>
      <trkpt lat="43.57725" lon="6.16595">
        <ele>404.8</ele>
        <time>2013-12-18T09:11:40Z</time>
      </trkpt>
      <trkpt lat="43.57733" lon="6.1659">
        <ele>405.7</ele>
        <time>2013-12-18T09:11:48Z</time>
      </trkpt>
      <trkpt lat="43.57738" lon="6.16582">
        <ele>406.1</ele>
        <time>2013-12-18T09:11:55Z</time>
      </trkpt>
      <trkpt lat="43.57739" lon="6.16581">
        <ele>406.1</ele>
        <time>2013-12-18T09:11:56Z</time>
      </trkpt>
      <trkpt lat="43.57752" lon="6.16569">
        <ele>406.6</ele>
        <time>2013-12-18T09:12:12Z</time>
      </trkpt>
      <trkpt lat="43.57759" lon="6.16562">
        <ele>407.7</ele>
        <time>2013-12-18T09:12:20Z</time>
      </trkpt>
      <trkpt lat="43.57763" lon="6.16552">
        <ele>407.8</ele>
        <time>2013-12-18T09:12:29Z</time>
      </trkpt>
      <trkpt lat="43.57764" lon="6.1654">
        <ele>408.2</ele>
        <time>2013-12-18T09:12:35Z</time>
      </trkpt>
      <trkpt lat="43.57766" lon="6.16528">
        <ele>408.6</ele>
        <time>2013-12-18T09:12:43Z</time>
      </trkpt>
      <trkpt lat="43.57769" lon="6.16517">
        <ele>408.7</ele>
        <time>2013-12-18T09:12:50Z</time>
      </trkpt>
      <trkpt lat="43.57769" lon="6.16505">
        <ele>409.3</ele>
        <time>2013-12-18T09:12:59Z</time>
      </trkpt>
      <trkpt lat="43.57769" lon="6.16504">
        <ele>409.7</ele>
        <time>2013-12-18T09:13:00Z</time>
      </trkpt>
      <trkpt lat="43.57762" lon="6.16487">
        <ele>409.8</ele>
        <time>2013-12-18T09:13:13Z</time>
      </trkpt>
      <trkpt lat="43.57757" lon="6.16477">
        <ele>411</ele>
        <time>2013-12-18T09:13:21Z</time>
      </trkpt>
      <trkpt lat="43.57754" lon="6.16466">
        <ele>411.7</ele>
        <time>2013-12-18T09:13:30Z</time>
      </trkpt>
      <trkpt lat="43.57753" lon="6.16454">
        <ele>413.2</ele>
        <time>2013-12-18T09:13:38Z</time>
      </trkpt>
      <trkpt lat="43.57756" lon="6.16443">
        <ele>414.2</ele>
        <time>2013-12-18T09:13:49Z</time>
      </trkpt>
      <trkpt lat="43.57758" lon="6.16432">
        <ele>414.5</ele>
        <time>2013-12-18T09:13:59Z</time>
      </trkpt>
      <trkpt lat="43.57762" lon="6.16421">
        <ele>416.2</ele>
        <time>2013-12-18T09:14:08Z</time>
      </trkpt>
      <trkpt lat="43.57762" lon="6.16419">
        <ele>416.2</ele>
        <time>2013-12-18T09:14:09Z</time>
      </trkpt>
      <trkpt lat="43.57768" lon="6.16398">
        <ele>418.1</ele>
        <time>2013-12-18T09:14:25Z</time>
      </trkpt>
      <trkpt lat="43.57769" lon="6.16386">
        <ele>418.8</ele>
        <time>2013-12-18T09:14:34Z</time>
      </trkpt>
      <trkpt lat="43.5777" lon="6.16375">
        <ele>419.4</ele>
        <time>2013-12-18T09:14:43Z</time>
      </trkpt>
      <trkpt lat="43.57772" lon="6.16363">
        <ele>420.2</ele>
        <time>2013-12-18T09:14:50Z</time>
      </trkpt>
      <trkpt lat="43.57775" lon="6.16353">
        <ele>420.5</ele>
        <time>2013-12-18T09:14:57Z</time>
      </trkpt>
      <trkpt lat="43.57778" lon="6.16342">
        <ele>420.3</ele>
        <time>2013-12-18T09:15:05Z</time>
      </trkpt>
      <trkpt lat="43.57779" lon="6.16331">
        <ele>420.1</ele>
        <time>2013-12-18T09:15:12Z</time>
      </trkpt>
      <trkpt lat="43.5778" lon="6.16328">
        <ele>420.2</ele>
        <time>2013-12-18T09:15:13Z</time>
      </trkpt>
      <trkpt lat="43.57782" lon="6.1631">
        <ele>420.1</ele>
        <time>2013-12-18T09:15:24Z</time>
      </trkpt>
      <trkpt lat="43.57783" lon="6.16299">
        <ele>420.3</ele>
        <time>2013-12-18T09:15:29Z</time>
      </trkpt>
      <trkpt lat="43.57783" lon="6.16288">
        <ele>420.1</ele>
        <time>2013-12-18T09:15:36Z</time>
      </trkpt>
      <trkpt lat="43.57785" lon="6.16276">
        <ele>420.4</ele>
        <time>2013-12-18T09:15:44Z</time>
      </trkpt>
      <trkpt lat="43.57788" lon="6.16266">
        <ele>420.2</ele>
        <time>2013-12-18T09:15:53Z</time>
      </trkpt>
      <trkpt lat="43.57787" lon="6.16254">
        <ele>420.6</ele>
        <time>2013-12-18T09:16:01Z</time>
      </trkpt>
      <trkpt lat="43.5779" lon="6.16243">
        <ele>421</ele>
        <time>2013-12-18T09:16:08Z</time>
      </trkpt>
      <trkpt lat="43.57794" lon="6.16232">
        <ele>420.9</ele>
        <time>2013-12-18T09:16:14Z</time>
      </trkpt>
      <trkpt lat="43.57794" lon="6.16231">
        <ele>421.1</ele>
        <time>2013-12-18T09:16:15Z</time>
      </trkpt>
      <trkpt lat="43.57791" lon="6.1622">
        <ele>421.6</ele>
        <time>2013-12-18T09:17:52Z</time>
      </trkpt>
      <trkpt lat="43.57798" lon="6.16199">
        <ele>421.3</ele>
        <time>2013-12-18T09:18:06Z</time>
      </trkpt>
      <trkpt lat="43.57802" lon="6.16189">
        <ele>421.8</ele>
        <time>2013-12-18T09:18:11Z</time>
      </trkpt>
      <trkpt lat="43.57804" lon="6.16177">
        <ele>422.3</ele>
        <time>2013-12-18T09:18:19Z</time>
      </trkpt>
      <trkpt lat="43.57808" lon="6.16167">
        <ele>422.9</ele>
        <time>2013-12-18T09:18:27Z</time>
      </trkpt>
      <trkpt lat="43.57815" lon="6.16161">
        <ele>422.8</ele>
        <time>2013-12-18T09:18:33Z</time>
      </trkpt>
      <trkpt lat="43.5782" lon="6.16152">
        <ele>423</ele>
        <time>2013-12-18T09:18:41Z</time>
      </trkpt>
      <trkpt lat="43.57824" lon="6.16143">
        <ele>423.3</ele>
        <time>2013-12-18T09:18:49Z</time>
      </trkpt>
      <trkpt lat="43.57829" lon="6.16135">
        <ele>424.4</ele>
        <time>2013-12-18T09:18:54Z</time>
      </trkpt>
      <trkpt lat="43.5783" lon="6.16133">
        <ele>424.2</ele>
        <time>2013-12-18T09:18:55Z</time>
      </trkpt>
      <trkpt lat="43.57841" lon="6.16121">
        <ele>424.2</ele>
        <time>2013-12-18T09:19:02Z</time>
      </trkpt>
      <trkpt lat="43.57848" lon="6.16112">
        <ele>425</ele>
        <time>2013-12-18T09:19:08Z</time>
      </trkpt>
      <trkpt lat="43.57854" lon="6.16106">
        <ele>425.4</ele>
        <time>2013-12-18T09:19:15Z</time>
      </trkpt>
      <trkpt lat="43.57861" lon="6.16101">
        <ele>425.7</ele>
        <time>2013-12-18T09:19:20Z</time>
      </trkpt>
      <trkpt lat="43.57868" lon="6.16095">
        <ele>425.6</ele>
        <time>2013-12-18T09:19:24Z</time>
      </trkpt>
      <trkpt lat="43.57877" lon="6.16091">
        <ele>426</ele>
        <time>2013-12-18T09:19:29Z</time>
      </trkpt>
      <trkpt lat="43.57884" lon="6.16084">
        <ele>426.2</ele>
        <time>2013-12-18T09:19:38Z</time>
      </trkpt>
      <trkpt lat="43.57891" lon="6.16078">
        <ele>426.7</ele>
        <time>2013-12-18T09:19:48Z</time>
      </trkpt>
      <trkpt lat="43.57898" lon="6.16073">
        <ele>427.1</ele>
        <time>2013-12-18T09:19:54Z</time>
      </trkpt>
      <trkpt lat="43.57904" lon="6.16069">
        <ele>427.7</ele>
        <time>2013-12-18T09:19:58Z</time>
      </trkpt>
      <trkpt lat="43.57907" lon="6.16069">
        <ele>427.8</ele>
        <time>2013-12-18T09:19:59Z</time>
      </trkpt>
      <trkpt lat="43.57917" lon="6.16059">
        <ele>428.3</ele>
        <time>2013-12-18T09:20:04Z</time>
      </trkpt>
      <trkpt lat="43.57925" lon="6.16054">
        <ele>428.6</ele>
        <time>2013-12-18T09:20:10Z</time>
      </trkpt>
      <trkpt lat="43.57932" lon="6.16048">
        <ele>428.8</ele>
        <time>2013-12-18T09:20:21Z</time>
      </trkpt>
      <trkpt lat="43.5794" lon="6.16043">
        <ele>429.5</ele>
        <time>2013-12-18T09:20:27Z</time>
      </trkpt>
      <trkpt lat="43.57948" lon="6.16039">
        <ele>430.1</ele>
        <time>2013-12-18T09:20:32Z</time>
      </trkpt>
      <trkpt lat="43.57955" lon="6.16034">
        <ele>430.1</ele>
        <time>2013-12-18T09:20:35Z</time>
      </trkpt>
      <trkpt lat="43.57963" lon="6.16028">
        <ele>430.3</ele>
        <time>2013-12-18T09:20:39Z</time>
      </trkpt>
      <trkpt lat="43.57971" lon="6.16025">
        <ele>430.3</ele>
        <time>2013-12-18T09:20:45Z</time>
      </trkpt>
      <trkpt lat="43.57978" lon="6.16019">
        <ele>430.5</ele>
        <time>2013-12-18T09:20:54Z</time>
      </trkpt>
      <trkpt lat="43.57984" lon="6.16013">
        <ele>431.3</ele>
        <time>2013-12-18T09:20:58Z</time>
      </trkpt>
      <trkpt lat="43.57992" lon="6.1601">
        <ele>431.2</ele>
        <time>2013-12-18T09:21:02Z</time>
      </trkpt>
      <trkpt lat="43.57994" lon="6.16009">
        <ele>431.6</ele>
        <time>2013-12-18T09:21:03Z</time>
      </trkpt>
      <trkpt lat="43.58007" lon="6.16004">
        <ele>432</ele>
        <time>2013-12-18T09:21:17Z</time>
      </trkpt>
      <trkpt lat="43.58015" lon="6.16003">
        <ele>432.6</ele>
        <time>2013-12-18T09:21:26Z</time>
      </trkpt>
      <trkpt lat="43.58024" lon="6.16002">
        <ele>432.8</ele>
        <time>2013-12-18T09:21:30Z</time>
      </trkpt>
      <trkpt lat="43.58032" lon="6.16">
        <ele>432.9</ele>
        <time>2013-12-18T09:21:36Z</time>
      </trkpt>
      <trkpt lat="43.58039" lon="6.15997">
        <ele>433.3</ele>
        <time>2013-12-18T09:21:43Z</time>
      </trkpt>
      <trkpt lat="43.58048" lon="6.15995">
        <ele>433.9</ele>
        <time>2013-12-18T09:21:53Z</time>
      </trkpt>
      <trkpt lat="43.58056" lon="6.15991">
        <ele>434.2</ele>
        <time>2013-12-18T09:23:01Z</time>
      </trkpt>
      <trkpt lat="43.58057" lon="6.15992">
        <ele>434.1</ele>
        <time>2013-12-18T09:23:02Z</time>
      </trkpt>
      <trkpt lat="43.58048" lon="6.15986">
        <ele>433.1</ele>
        <time>2013-12-18T09:24:14Z</time>
      </trkpt>
      <trkpt lat="43.58058" lon="6.15988">
        <ele>433.5</ele>
        <time>2013-12-18T09:29:23Z</time>
      </trkpt>
      <trkpt lat="43.58072" lon="6.15984">
        <ele>433.9</ele>
        <time>2013-12-18T09:30:03Z</time>
      </trkpt>
      <trkpt lat="43.58078" lon="6.15975">
        <ele>433.9</ele>
        <time>2013-12-18T09:30:16Z</time>
      </trkpt>
      <trkpt lat="43.58082" lon="6.15965">
        <ele>435.1</ele>
        <time>2013-12-18T09:30:25Z</time>
      </trkpt>
      <trkpt lat="43.58083" lon="6.15964">
        <ele>435</ele>
        <time>2013-12-18T09:30:26Z</time>
      </trkpt>
      <trkpt lat="43.58089" lon="6.15944">
        <ele>435.9</ele>
        <time>2013-12-18T09:30:46Z</time>
      </trkpt>
      <trkpt lat="43.58092" lon="6.15933">
        <ele>435.9</ele>
        <time>2013-12-18T09:30:56Z</time>
      </trkpt>
      <trkpt lat="43.58092" lon="6.15922">
        <ele>435.9</ele>
        <time>2013-12-18T09:31:05Z</time>
      </trkpt>
      <trkpt lat="43.58088" lon="6.15912">
        <ele>436.2</ele>
        <time>2013-12-18T09:31:14Z</time>
      </trkpt>
      <trkpt lat="43.58083" lon="6.15903">
        <ele>435.9</ele>
        <time>2013-12-18T09:31:22Z</time>
      </trkpt>
      <trkpt lat="43.58077" lon="6.15894">
        <ele>436.1</ele>
        <time>2013-12-18T09:31:30Z</time>
      </trkpt>
      <trkpt lat="43.58077" lon="6.15893">
        <ele>435.9</ele>
        <time>2013-12-18T09:31:31Z</time>
      </trkpt>
      <trkpt lat="43.58065" lon="6.15879">
        <ele>433.6</ele>
        <time>2013-12-18T09:31:49Z</time>
      </trkpt>
      <trkpt lat="43.58059" lon="6.1587">
        <ele>432.6</ele>
        <time>2013-12-18T09:32:00Z</time>
      </trkpt>
      <trkpt lat="43.58053" lon="6.15863">
        <ele>431.6</ele>
        <time>2013-12-18T09:32:22Z</time>
      </trkpt>
      <trkpt lat="43.58048" lon="6.15853">
        <ele>430.2</ele>
        <time>2013-12-18T09:32:29Z</time>
      </trkpt>
      <trkpt lat="43.58042" lon="6.15845">
        <ele>429.3</ele>
        <time>2013-12-18T09:32:39Z</time>
      </trkpt>
      <trkpt lat="43.58042" lon="6.15844">
        <ele>429.4</ele>
        <time>2013-12-18T09:32:40Z</time>
      </trkpt>
      <trkpt lat="43.58033" lon="6.15826">
        <ele>428.5</ele>
        <time>2013-12-18T09:32:59Z</time>
      </trkpt>
      <trkpt lat="43.58027" lon="6.15818">
        <ele>428.1</ele>
        <time>2013-12-18T09:33:07Z</time>
      </trkpt>
      <trkpt lat="43.58022" lon="6.15808">
        <ele>427</ele>
        <time>2013-12-18T09:33:17Z</time>
      </trkpt>
      <trkpt lat="43.58018" lon="6.15797">
        <ele>427</ele>
        <time>2013-12-18T09:33:26Z</time>
      </trkpt>
      <trkpt lat="43.58015" lon="6.15786">
        <ele>427.6</ele>
        <time>2013-12-18T09:33:42Z</time>
      </trkpt>
      <trkpt lat="43.58015" lon="6.15786">
        <ele>427.4</ele>
        <time>2013-12-18T09:33:43Z</time>
      </trkpt>
      <trkpt lat="43.58007" lon="6.15764">
        <ele>426.5</ele>
        <time>2013-12-18T09:34:15Z</time>
      </trkpt>
      <trkpt lat="43.58001" lon="6.15756">
        <ele>425.8</ele>
        <time>2013-12-18T09:34:26Z</time>
      </trkpt>
      <trkpt lat="43.57995" lon="6.15747">
        <ele>424.8</ele>
        <time>2013-12-18T09:34:34Z</time>
      </trkpt>
      <trkpt lat="43.57992" lon="6.15736">
        <ele>423.3</ele>
        <time>2013-12-18T09:34:42Z</time>
      </trkpt>
      <trkpt lat="43.57989" lon="6.15724">
        <ele>422</ele>
        <time>2013-12-18T09:34:50Z</time>
      </trkpt>
      <trkpt lat="43.5799" lon="6.15723">
        <ele>421.9</ele>
        <time>2013-12-18T09:34:51Z</time>
      </trkpt>
      <trkpt lat="43.57986" lon="6.15702">
        <ele>420.1</ele>
        <time>2013-12-18T09:35:05Z</time>
      </trkpt>
      <trkpt lat="43.57987" lon="6.15691">
        <ele>418.7</ele>
        <time>2013-12-18T09:35:15Z</time>
      </trkpt>
      <trkpt lat="43.57985" lon="6.15679">
        <ele>419.4</ele>
        <time>2013-12-18T09:35:23Z</time>
      </trkpt>
      <trkpt lat="43.57985" lon="6.15667">
        <ele>418.4</ele>
        <time>2013-12-18T09:35:32Z</time>
      </trkpt>
      <trkpt lat="43.57984" lon="6.15654">
        <ele>418</ele>
        <time>2013-12-18T09:35:41Z</time>
      </trkpt>
      <trkpt lat="43.57984" lon="6.15643">
        <ele>418.1</ele>
        <time>2013-12-18T09:35:51Z</time>
      </trkpt>
      <trkpt lat="43.57984" lon="6.15641">
        <ele>418.1</ele>
        <time>2013-12-18T09:35:52Z</time>
      </trkpt>
      <trkpt lat="43.57983" lon="6.1562">
        <ele>417.2</ele>
        <time>2013-12-18T09:36:06Z</time>
      </trkpt>
      <trkpt lat="43.57983" lon="6.15608">
        <ele>416.5</ele>
        <time>2013-12-18T09:36:15Z</time>
      </trkpt>
      <trkpt lat="43.57983" lon="6.15597">
        <ele>415.7</ele>
        <time>2013-12-18T09:36:23Z</time>
      </trkpt>
      <trkpt lat="43.57981" lon="6.15585">
        <ele>415.9</ele>
        <time>2013-12-18T09:36:30Z</time>
      </trkpt>
      <trkpt lat="43.57981" lon="6.15574">
        <ele>415.2</ele>
        <time>2013-12-18T09:36:39Z</time>
      </trkpt>
      <trkpt lat="43.57979" lon="6.15563">
        <ele>414.3</ele>
        <time>2013-12-18T09:36:48Z</time>
      </trkpt>
      <trkpt lat="43.57977" lon="6.15551">
        <ele>413.7</ele>
        <time>2013-12-18T09:36:56Z</time>
      </trkpt>
      <trkpt lat="43.57977" lon="6.15551">
        <ele>413.7</ele>
        <time>2013-12-18T09:36:57Z</time>
      </trkpt>
      <trkpt lat="43.57975" lon="6.15529">
        <ele>412.8</ele>
        <time>2013-12-18T09:37:15Z</time>
      </trkpt>
      <trkpt lat="43.57975" lon="6.15517">
        <ele>412.5</ele>
        <time>2013-12-18T09:37:24Z</time>
      </trkpt>
      <trkpt lat="43.57979" lon="6.15507">
        <ele>411.7</ele>
        <time>2013-12-18T09:37:33Z</time>
      </trkpt>
      <trkpt lat="43.5798" lon="6.15495">
        <ele>411</ele>
        <time>2013-12-18T09:37:45Z</time>
      </trkpt>
      <trkpt lat="43.57982" lon="6.15483">
        <ele>411.2</ele>
        <time>2013-12-18T09:38:02Z</time>
      </trkpt>
      <trkpt lat="43.57983" lon="6.15482">
        <ele>411.5</ele>
        <time>2013-12-18T09:38:03Z</time>
      </trkpt>
      <trkpt lat="43.5799" lon="6.15462">
        <ele>412.9</ele>
        <time>2013-12-18T09:38:20Z</time>
      </trkpt>
      <trkpt lat="43.57996" lon="6.15455">
        <ele>412.2</ele>
        <time>2013-12-18T09:38:27Z</time>
      </trkpt>
      <trkpt lat="43.58002" lon="6.15446">
        <ele>412.2</ele>
        <time>2013-12-18T09:38:38Z</time>
      </trkpt>
      <trkpt lat="43.5801" lon="6.15441">
        <ele>412.1</ele>
        <time>2013-12-18T09:38:46Z</time>
      </trkpt>
      <trkpt lat="43.58017" lon="6.15435">
        <ele>411.6</ele>
        <time>2013-12-18T09:38:54Z</time>
      </trkpt>
      <trkpt lat="43.58023" lon="6.15426">
        <ele>412</ele>
        <time>2013-12-18T09:39:02Z</time>
      </trkpt>
      <trkpt lat="43.5803" lon="6.15419">
        <ele>412.8</ele>
        <time>2013-12-18T09:39:11Z</time>
      </trkpt>
      <trkpt lat="43.5803" lon="6.15418">
        <ele>412.7</ele>
        <time>2013-12-18T09:39:12Z</time>
      </trkpt>
      <trkpt lat="43.58043" lon="6.15404">
        <ele>412.8</ele>
        <time>2013-12-18T09:39:27Z</time>
      </trkpt>
      <trkpt lat="43.5805" lon="6.15397">
        <ele>412.7</ele>
        <time>2013-12-18T09:39:36Z</time>
      </trkpt>
      <trkpt lat="43.58057" lon="6.15389">
        <ele>414</ele>
        <time>2013-12-18T09:39:47Z</time>
      </trkpt>
      <trkpt lat="43.58062" lon="6.15381">
        <ele>413.3</ele>
        <time>2013-12-18T09:39:53Z</time>
      </trkpt>
      <trkpt lat="43.58068" lon="6.15374">
        <ele>413.4</ele>
        <time>2013-12-18T09:39:58Z</time>
      </trkpt>
      <trkpt lat="43.58074" lon="6.15365">
        <ele>414.2</ele>
        <time>2013-12-18T09:40:07Z</time>
      </trkpt>
      <trkpt lat="43.5808" lon="6.15356">
        <ele>413.3</ele>
        <time>2013-12-18T09:40:19Z</time>
      </trkpt>
      <trkpt lat="43.58081" lon="6.15356">
        <ele>413.2</ele>
        <time>2013-12-18T09:40:20Z</time>
      </trkpt>
      <trkpt lat="43.58089" lon="6.15336">
        <ele>412.7</ele>
        <time>2013-12-18T09:40:39Z</time>
      </trkpt>
      <trkpt lat="43.58096" lon="6.15329">
        <ele>413.3</ele>
        <time>2013-12-18T09:40:54Z</time>
      </trkpt>
      <trkpt lat="43.58102" lon="6.15322">
        <ele>413</ele>
        <time>2013-12-18T09:41:02Z</time>
      </trkpt>
      <trkpt lat="43.58107" lon="6.15312">
        <ele>412.8</ele>
        <time>2013-12-18T09:41:10Z</time>
      </trkpt>
      <trkpt lat="43.58111" lon="6.15302">
        <ele>413.6</ele>
        <time>2013-12-18T09:41:18Z</time>
      </trkpt>
      <trkpt lat="43.58116" lon="6.15292">
        <ele>413.5</ele>
        <time>2013-12-18T09:41:29Z</time>
      </trkpt>
      <trkpt lat="43.58117" lon="6.15291">
        <ele>413.7</ele>
        <time>2013-12-18T09:41:30Z</time>
      </trkpt>
      <trkpt lat="43.58125" lon="6.15273">
        <ele>413.2</ele>
        <time>2013-12-18T09:42:04Z</time>
      </trkpt>
      <trkpt lat="43.58131" lon="6.15265">
        <ele>412.7</ele>
        <time>2013-12-18T09:42:11Z</time>
      </trkpt>
      <trkpt lat="43.58137" lon="6.15257">
        <ele>413.3</ele>
        <time>2013-12-18T09:42:20Z</time>
      </trkpt>
      <trkpt lat="43.58143" lon="6.15248">
        <ele>413.3</ele>
        <time>2013-12-18T09:42:28Z</time>
      </trkpt>
      <trkpt lat="43.58147" lon="6.15238">
        <ele>413.2</ele>
        <time>2013-12-18T09:42:36Z</time>
      </trkpt>
      <trkpt lat="43.58147" lon="6.15237">
        <ele>413.1</ele>
        <time>2013-12-18T09:42:37Z</time>
      </trkpt>
      <trkpt lat="43.58158" lon="6.15221">
        <ele>413.4</ele>
        <time>2013-12-18T09:42:54Z</time>
      </trkpt>
      <trkpt lat="43.58164" lon="6.15212">
        <ele>413.5</ele>
        <time>2013-12-18T09:43:01Z</time>
      </trkpt>
      <trkpt lat="43.58169" lon="6.15203">
        <ele>413.3</ele>
        <time>2013-12-18T09:43:11Z</time>
      </trkpt>
      <trkpt lat="43.58174" lon="6.15194">
        <ele>413.4</ele>
        <time>2013-12-18T09:43:25Z</time>
      </trkpt>
      <trkpt lat="43.5818" lon="6.15185">
        <ele>412.5</ele>
        <time>2013-12-18T09:43:35Z</time>
      </trkpt>
      <trkpt lat="43.58184" lon="6.15174">
        <ele>412.2</ele>
        <time>2013-12-18T09:43:45Z</time>
      </trkpt>
      <trkpt lat="43.58184" lon="6.15174">
        <ele>412.3</ele>
        <time>2013-12-18T09:43:46Z</time>
      </trkpt>
      <trkpt lat="43.58195" lon="6.15157">
        <ele>410.5</ele>
        <time>2013-12-18T09:44:06Z</time>
      </trkpt>
      <trkpt lat="43.582" lon="6.15148">
        <ele>409.8</ele>
        <time>2013-12-18T09:44:13Z</time>
      </trkpt>
      <trkpt lat="43.58205" lon="6.15137">
        <ele>410.3</ele>
        <time>2013-12-18T09:44:22Z</time>
      </trkpt>
      <trkpt lat="43.5821" lon="6.15129">
        <ele>410.4</ele>
        <time>2013-12-18T09:44:34Z</time>
      </trkpt>
      <trkpt lat="43.58216" lon="6.15121">
        <ele>410.6</ele>
        <time>2013-12-18T09:44:42Z</time>
      </trkpt>
      <trkpt lat="43.58223" lon="6.15117">
        <ele>410.9</ele>
        <time>2013-12-18T09:44:46Z</time>
      </trkpt>
      <trkpt lat="43.58224" lon="6.15116">
        <ele>410.8</ele>
        <time>2013-12-18T09:44:47Z</time>
      </trkpt>
      <trkpt lat="43.58234" lon="6.15098">
        <ele>411.2</ele>
        <time>2013-12-18T09:45:27Z</time>
      </trkpt>
      <trkpt lat="43.58241" lon="6.15094">
        <ele>411</ele>
        <time>2013-12-18T09:45:42Z</time>
      </trkpt>
      <trkpt lat="43.58246" lon="6.15084">
        <ele>410.1</ele>
        <time>2013-12-18T09:45:47Z</time>
      </trkpt>
      <trkpt lat="43.58247" lon="6.15083">
        <ele>409.9</ele>
        <time>2013-12-18T09:45:48Z</time>
      </trkpt>
      <trkpt lat="43.58257" lon="6.15067">
        <ele>409.8</ele>
        <time>2013-12-18T09:46:04Z</time>
      </trkpt>
      <trkpt lat="43.58262" lon="6.15058">
        <ele>408.5</ele>
        <time>2013-12-18T09:46:11Z</time>
      </trkpt>
      <trkpt lat="43.58266" lon="6.15047">
        <ele>408.2</ele>
        <time>2013-12-18T09:46:20Z</time>
      </trkpt>
      <trkpt lat="43.58269" lon="6.15036">
        <ele>407.9</ele>
        <time>2013-12-18T09:46:26Z</time>
      </trkpt>
      <trkpt lat="43.58274" lon="6.15027">
        <ele>408.4</ele>
        <time>2013-12-18T09:46:45Z</time>
      </trkpt>
      <trkpt lat="43.58279" lon="6.15017">
        <ele>407.6</ele>
        <time>2013-12-18T09:46:58Z</time>
      </trkpt>
      <trkpt lat="43.58278" lon="6.15015">
        <ele>407.5</ele>
        <time>2013-12-18T09:46:59Z</time>
      </trkpt>
      <trkpt lat="43.58282" lon="6.14994">
        <ele>407</ele>
        <time>2013-12-18T09:47:15Z</time>
      </trkpt>
      <trkpt lat="43.58281" lon="6.14983">
        <ele>406.4</ele>
        <time>2013-12-18T09:47:23Z</time>
      </trkpt>
      <trkpt lat="43.58279" lon="6.14971">
        <ele>405.8</ele>
        <time>2013-12-18T09:47:30Z</time>
      </trkpt>
      <trkpt lat="43.58276" lon="6.1496">
        <ele>405.7</ele>
        <time>2013-12-18T09:47:37Z</time>
      </trkpt>
      <trkpt lat="43.5827" lon="6.14951">
        <ele>405.1</ele>
        <time>2013-12-18T09:47:47Z</time>
      </trkpt>
      <trkpt lat="43.58265" lon="6.14941">
        <ele>404.5</ele>
        <time>2013-12-18T09:47:58Z</time>
      </trkpt>
      <trkpt lat="43.58273" lon="6.14937">
        <ele>404.7</ele>
        <time>2013-12-18T09:48:11Z</time>
      </trkpt>
      <trkpt lat="43.58273" lon="6.14937">
        <ele>404.7</ele>
        <time>2013-12-18T09:48:12Z</time>
      </trkpt>
      <trkpt lat="43.58286" lon="6.14927">
        <ele>404.6</ele>
        <time>2013-12-18T09:48:29Z</time>
      </trkpt>
      <trkpt lat="43.58292" lon="6.14918">
        <ele>404.9</ele>
        <time>2013-12-18T09:48:42Z</time>
      </trkpt>
      <trkpt lat="43.58296" lon="6.14907">
        <ele>405.8</ele>
        <time>2013-12-18T09:49:02Z</time>
      </trkpt>
      <trkpt lat="43.58292" lon="6.14896">
        <ele>406.2</ele>
        <time>2013-12-18T09:49:44Z</time>
      </trkpt>
      <trkpt lat="43.58292" lon="6.14896">
        <ele>406.2</ele>
        <time>2013-12-18T09:49:45Z</time>
      </trkpt>
      <trkpt lat="43.58298" lon="6.14876">
        <ele>407.6</ele>
        <time>2013-12-18T09:50:22Z</time>
      </trkpt>
      <trkpt lat="43.583" lon="6.14864">
        <ele>408.2</ele>
        <time>2013-12-18T09:50:31Z</time>
      </trkpt>
      <trkpt lat="43.58306" lon="6.14855">
        <ele>409</ele>
        <time>2013-12-18T09:50:42Z</time>
      </trkpt>
      <trkpt lat="43.58313" lon="6.14848">
        <ele>409.2</ele>
        <time>2013-12-18T09:50:48Z</time>
      </trkpt>
      <trkpt lat="43.58314" lon="6.14848">
        <ele>409.4</ele>
        <time>2013-12-18T09:50:49Z</time>
      </trkpt>
      <trkpt lat="43.58322" lon="6.1483">
        <ele>410.8</ele>
        <time>2013-12-18T09:51:03Z</time>
      </trkpt>
      <trkpt lat="43.58327" lon="6.14821">
        <ele>411.5</ele>
        <time>2013-12-18T09:51:11Z</time>
      </trkpt>
      <trkpt lat="43.58332" lon="6.14812">
        <ele>412</ele>
        <time>2013-12-18T09:51:20Z</time>
      </trkpt>
      <trkpt lat="43.58336" lon="6.14802">
        <ele>412.2</ele>
        <time>2013-12-18T09:51:27Z</time>
      </trkpt>
      <trkpt lat="43.58339" lon="6.14792">
        <ele>412.3</ele>
        <time>2013-12-18T09:51:32Z</time>
      </trkpt>
      <trkpt lat="43.58344" lon="6.14783">
        <ele>412.4</ele>
        <time>2013-12-18T09:51:38Z</time>
      </trkpt>
      <trkpt lat="43.5835" lon="6.14774">
        <ele>411.6</ele>
        <time>2013-12-18T09:51:46Z</time>
      </trkpt>
      <trkpt lat="43.58357" lon="6.14767">
        <ele>411.3</ele>
        <time>2013-12-18T09:51:56Z</time>
      </trkpt>
      <trkpt lat="43.58358" lon="6.14766">
        <ele>411.2</ele>
        <time>2013-12-18T09:51:57Z</time>
      </trkpt>
      <trkpt lat="43.5837" lon="6.1475">
        <ele>409.9</ele>
        <time>2013-12-18T09:52:11Z</time>
      </trkpt>
      <trkpt lat="43.58376" lon="6.14744">
        <ele>409.7</ele>
        <time>2013-12-18T09:52:17Z</time>
      </trkpt>
      <trkpt lat="43.5838" lon="6.14733">
        <ele>410.3</ele>
        <time>2013-12-18T09:52:30Z</time>
      </trkpt>
      <trkpt lat="43.58386" lon="6.14725">
        <ele>409.6</ele>
        <time>2013-12-18T09:52:39Z</time>
      </trkpt>
      <trkpt lat="43.58393" lon="6.14719">
        <ele>408.7</ele>
        <time>2013-12-18T09:52:46Z</time>
      </trkpt>
      <trkpt lat="43.584" lon="6.14714">
        <ele>408.9</ele>
        <time>2013-12-18T09:52:51Z</time>
      </trkpt>
      <trkpt lat="43.58407" lon="6.14708">
        <ele>408.8</ele>
        <time>2013-12-18T09:52:56Z</time>
      </trkpt>
      <trkpt lat="43.58414" lon="6.14703">
        <ele>409</ele>
        <time>2013-12-18T09:53:03Z</time>
      </trkpt>
      <trkpt lat="43.58416" lon="6.14701">
        <ele>408.9</ele>
        <time>2013-12-18T09:53:04Z</time>
      </trkpt>
      <trkpt lat="43.58427" lon="6.14686">
        <ele>408.1</ele>
        <time>2013-12-18T09:53:16Z</time>
      </trkpt>
      <trkpt lat="43.58431" lon="6.14677">
        <ele>407.7</ele>
        <time>2013-12-18T09:53:23Z</time>
      </trkpt>
      <trkpt lat="43.58436" lon="6.14667">
        <ele>406.5</ele>
        <time>2013-12-18T09:53:48Z</time>
      </trkpt>
      <trkpt lat="43.5844" lon="6.14658">
        <ele>406.1</ele>
        <time>2013-12-18T09:53:53Z</time>
      </trkpt>
      <trkpt lat="43.58443" lon="6.14649">
        <ele>406.3</ele>
        <time>2013-12-18T09:53:59Z</time>
      </trkpt>
      <trkpt lat="43.58446" lon="6.14637">
        <ele>406</ele>
        <time>2013-12-18T09:54:04Z</time>
      </trkpt>
      <trkpt lat="43.58446" lon="6.14635">
        <ele>406</ele>
        <time>2013-12-18T09:54:05Z</time>
      </trkpt>
      <trkpt lat="43.5845" lon="6.14615">
        <ele>405.6</ele>
        <time>2013-12-18T09:54:15Z</time>
      </trkpt>
      <trkpt lat="43.58451" lon="6.14603">
        <ele>405.4</ele>
        <time>2013-12-18T09:54:22Z</time>
      </trkpt>
      <trkpt lat="43.58452" lon="6.14591">
        <ele>405.9</ele>
        <time>2013-12-18T09:54:29Z</time>
      </trkpt>
      <trkpt lat="43.58451" lon="6.1458">
        <ele>405.2</ele>
        <time>2013-12-18T09:54:36Z</time>
      </trkpt>
      <trkpt lat="43.58452" lon="6.1457">
        <ele>405.6</ele>
        <time>2013-12-18T09:54:43Z</time>
      </trkpt>
      <trkpt lat="43.58456" lon="6.14559">
        <ele>405.5</ele>
        <time>2013-12-18T09:54:49Z</time>
      </trkpt>
      <trkpt lat="43.58458" lon="6.14548">
        <ele>405.5</ele>
        <time>2013-12-18T09:54:55Z</time>
      </trkpt>
      <trkpt lat="43.58462" lon="6.14538">
        <ele>405</ele>
        <time>2013-12-18T09:55:02Z</time>
      </trkpt>
      <trkpt lat="43.58465" lon="6.14527">
        <ele>404.3</ele>
        <time>2013-12-18T09:55:10Z</time>
      </trkpt>
      <trkpt lat="43.58466" lon="6.14525">
        <ele>404.2</ele>
        <time>2013-12-18T09:55:11Z</time>
      </trkpt>
      <trkpt lat="43.58475" lon="6.14508">
        <ele>404.3</ele>
        <time>2013-12-18T09:55:23Z</time>
      </trkpt>
      <trkpt lat="43.5848" lon="6.14499">
        <ele>404.5</ele>
        <time>2013-12-18T09:55:30Z</time>
      </trkpt>
      <trkpt lat="43.58486" lon="6.14491">
        <ele>404.7</ele>
        <time>2013-12-18T09:55:39Z</time>
      </trkpt>
      <trkpt lat="43.5849" lon="6.14481">
        <ele>404.7</ele>
        <time>2013-12-18T09:55:48Z</time>
      </trkpt>
      <trkpt lat="43.58493" lon="6.1447">
        <ele>404.5</ele>
        <time>2013-12-18T09:55:55Z</time>
      </trkpt>
      <trkpt lat="43.585" lon="6.14462">
        <ele>404.5</ele>
        <time>2013-12-18T09:56:05Z</time>
      </trkpt>
      <trkpt lat="43.58503" lon="6.14451">
        <ele>404.4</ele>
        <time>2013-12-18T09:56:13Z</time>
      </trkpt>
      <trkpt lat="43.58504" lon="6.14451">
        <ele>404.3</ele>
        <time>2013-12-18T09:56:14Z</time>
      </trkpt>
      <trkpt lat="43.58501" lon="6.1443">
        <ele>405.5</ele>
        <time>2013-12-18T09:57:11Z</time>
      </trkpt>
      <trkpt lat="43.585" lon="6.14419">
        <ele>405.8</ele>
        <time>2013-12-18T09:57:31Z</time>
      </trkpt>
      <trkpt lat="43.58501" lon="6.14418">
        <ele>406</ele>
        <time>2013-12-18T09:57:32Z</time>
      </trkpt>
      <trkpt lat="43.58508" lon="6.14399">
        <ele>406.2</ele>
        <time>2013-12-18T09:57:44Z</time>
      </trkpt>
      <trkpt lat="43.58512" lon="6.1439">
        <ele>406.6</ele>
        <time>2013-12-18T09:57:48Z</time>
      </trkpt>
      <trkpt lat="43.58516" lon="6.14381">
        <ele>406.2</ele>
        <time>2013-12-18T09:57:52Z</time>
      </trkpt>
      <trkpt lat="43.58517" lon="6.14369">
        <ele>406.2</ele>
        <time>2013-12-18T09:58:00Z</time>
      </trkpt>
      <trkpt lat="43.58516" lon="6.14357">
        <ele>406</ele>
        <time>2013-12-18T09:58:10Z</time>
      </trkpt>
      <trkpt lat="43.58517" lon="6.14346">
        <ele>405.7</ele>
        <time>2013-12-18T09:58:18Z</time>
      </trkpt>
      <trkpt lat="43.58517" lon="6.14334">
        <ele>405.6</ele>
        <time>2013-12-18T09:58:24Z</time>
      </trkpt>
      <trkpt lat="43.58517" lon="6.14322">
        <ele>405.9</ele>
        <time>2013-12-18T09:58:37Z</time>
      </trkpt>
      <trkpt lat="43.58516" lon="6.1432">
        <ele>405.9</ele>
        <time>2013-12-18T09:58:38Z</time>
      </trkpt>
      <trkpt lat="43.58517" lon="6.14299">
        <ele>405.7</ele>
        <time>2013-12-18T09:59:01Z</time>
      </trkpt>
      <trkpt lat="43.5852" lon="6.14288">
        <ele>405.3</ele>
        <time>2013-12-18T09:59:10Z</time>
      </trkpt>
      <trkpt lat="43.58522" lon="6.14277">
        <ele>404.9</ele>
        <time>2013-12-18T09:59:18Z</time>
      </trkpt>
      <trkpt lat="43.58524" lon="6.14266">
        <ele>404.7</ele>
        <time>2013-12-18T09:59:24Z</time>
      </trkpt>
      <trkpt lat="43.58524" lon="6.14253">
        <ele>404.7</ele>
        <time>2013-12-18T09:59:30Z</time>
      </trkpt>
      <trkpt lat="43.58524" lon="6.14242">
        <ele>404.6</ele>
        <time>2013-12-18T09:59:37Z</time>
      </trkpt>
      <trkpt lat="43.58525" lon="6.14232">
        <ele>404.9</ele>
        <time>2013-12-18T09:59:43Z</time>
      </trkpt>
      <trkpt lat="43.58526" lon="6.14229">
        <ele>404.9</ele>
        <time>2013-12-18T09:59:44Z</time>
      </trkpt>
      <trkpt lat="43.58527" lon="6.14209">
        <ele>406.8</ele>
        <time>2013-12-18T09:59:57Z</time>
      </trkpt>
      <trkpt lat="43.58525" lon="6.14197">
        <ele>407.5</ele>
        <time>2013-12-18T10:00:06Z</time>
      </trkpt>
      <trkpt lat="43.58523" lon="6.14186">
        <ele>409.6</ele>
        <time>2013-12-18T10:00:15Z</time>
      </trkpt>
      <trkpt lat="43.58521" lon="6.14174">
        <ele>412.2</ele>
        <time>2013-12-18T10:00:34Z</time>
      </trkpt>
      <trkpt lat="43.58519" lon="6.14162">
        <ele>412.4</ele>
        <time>2013-12-18T10:00:53Z</time>
      </trkpt>
      <trkpt lat="43.58519" lon="6.14162">
        <ele>412.5</ele>
        <time>2013-12-18T10:00:54Z</time>
      </trkpt>
      <trkpt lat="43.58511" lon="6.14142">
        <ele>413.9</ele>
        <time>2013-12-18T10:01:46Z</time>
      </trkpt>
      <trkpt lat="43.58511" lon="6.14129">
        <ele>415.7</ele>
        <time>2013-12-18T10:02:27Z</time>
      </trkpt>
      <trkpt lat="43.5851" lon="6.14129">
        <ele>415.8</ele>
        <time>2013-12-18T10:02:28Z</time>
      </trkpt>
      <trkpt lat="43.58509" lon="6.14106">
        <ele>418.3</ele>
        <time>2013-12-18T10:03:16Z</time>
      </trkpt>
      <trkpt lat="43.5851" lon="6.14094">
        <ele>419.3</ele>
        <time>2013-12-18T10:03:26Z</time>
      </trkpt>
      <trkpt lat="43.5851" lon="6.14082">
        <ele>420.6</ele>
        <time>2013-12-18T10:03:37Z</time>
      </trkpt>
      <trkpt lat="43.5851" lon="6.14081">
        <ele>420.7</ele>
        <time>2013-12-18T10:03:38Z</time>
      </trkpt>
      <trkpt lat="43.58508" lon="6.14058">
        <ele>422</ele>
        <time>2013-12-18T10:03:59Z</time>
      </trkpt>
      <trkpt lat="43.58511" lon="6.14048">
        <ele>422</ele>
        <time>2013-12-18T10:04:11Z</time>
      </trkpt>
      <trkpt lat="43.58517" lon="6.14039">
        <ele>421.6</ele>
        <time>2013-12-18T10:04:17Z</time>
      </trkpt>
      <trkpt lat="43.58519" lon="6.14028">
        <ele>421.7</ele>
        <time>2013-12-18T10:04:27Z</time>
      </trkpt>
      <trkpt lat="43.58523" lon="6.14018">
        <ele>420.9</ele>
        <time>2013-12-18T10:04:35Z</time>
      </trkpt>
      <trkpt lat="43.58526" lon="6.14008">
        <ele>420.4</ele>
        <time>2013-12-18T10:04:40Z</time>
      </trkpt>
      <trkpt lat="43.58527" lon="6.14006">
        <ele>420.4</ele>
        <time>2013-12-18T10:04:41Z</time>
      </trkpt>
      <trkpt lat="43.58535" lon="6.13988">
        <ele>419.6</ele>
        <time>2013-12-18T10:04:53Z</time>
      </trkpt>
      <trkpt lat="43.58538" lon="6.13976">
        <ele>419.6</ele>
        <time>2013-12-18T10:05:00Z</time>
      </trkpt>
      <trkpt lat="43.58541" lon="6.13965">
        <ele>419.5</ele>
        <time>2013-12-18T10:05:07Z</time>
      </trkpt>
      <trkpt lat="43.5854" lon="6.13953">
        <ele>420.7</ele>
        <time>2013-12-18T10:05:18Z</time>
      </trkpt>
      <trkpt lat="43.58536" lon="6.13943">
        <ele>420.3</ele>
        <time>2013-12-18T10:05:28Z</time>
      </trkpt>
      <trkpt lat="43.58538" lon="6.13931">
        <ele>421.6</ele>
        <time>2013-12-18T10:05:38Z</time>
      </trkpt>
      <trkpt lat="43.58541" lon="6.1392">
        <ele>422.8</ele>
        <time>2013-12-18T10:05:49Z</time>
      </trkpt>
      <trkpt lat="43.58542" lon="6.13919">
        <ele>423</ele>
        <time>2013-12-18T10:05:50Z</time>
      </trkpt>
      <trkpt lat="43.58544" lon="6.13897">
        <ele>425</ele>
        <time>2013-12-18T10:06:09Z</time>
      </trkpt>
      <trkpt lat="43.58544" lon="6.13885">
        <ele>426.1</ele>
        <time>2013-12-18T10:06:19Z</time>
      </trkpt>
      <trkpt lat="43.58544" lon="6.13874">
        <ele>427.3</ele>
        <time>2013-12-18T10:06:30Z</time>
      </trkpt>
      <trkpt lat="43.58543" lon="6.13862">
        <ele>427.8</ele>
        <time>2013-12-18T10:06:41Z</time>
      </trkpt>
      <trkpt lat="43.58544" lon="6.13849">
        <ele>430.1</ele>
        <time>2013-12-18T10:06:52Z</time>
      </trkpt>
      <trkpt lat="43.58544" lon="6.13848">
        <ele>430.1</ele>
        <time>2013-12-18T10:06:53Z</time>
      </trkpt>
      <trkpt lat="43.58547" lon="6.13825">
        <ele>432.1</ele>
        <time>2013-12-18T10:07:13Z</time>
      </trkpt>
      <trkpt lat="43.58545" lon="6.13814">
        <ele>433.9</ele>
        <time>2013-12-18T10:07:22Z</time>
      </trkpt>
      <trkpt lat="43.58543" lon="6.13802">
        <ele>435.3</ele>
        <time>2013-12-18T10:07:33Z</time>
      </trkpt>
      <trkpt lat="43.58538" lon="6.13792">
        <ele>435.7</ele>
        <time>2013-12-18T10:07:41Z</time>
      </trkpt>
      <trkpt lat="43.58534" lon="6.13782">
        <ele>436.2</ele>
        <time>2013-12-18T10:07:51Z</time>
      </trkpt>
      <trkpt lat="43.5853" lon="6.13771">
        <ele>436.9</ele>
        <time>2013-12-18T10:08:01Z</time>
      </trkpt>
      <trkpt lat="43.58529" lon="6.13771">
        <ele>437.4</ele>
        <time>2013-12-18T10:08:02Z</time>
      </trkpt>
      <trkpt lat="43.58523" lon="6.13751">
        <ele>438.7</ele>
        <time>2013-12-18T10:08:20Z</time>
      </trkpt>
      <trkpt lat="43.58518" lon="6.1374">
        <ele>440.2</ele>
        <time>2013-12-18T10:08:30Z</time>
      </trkpt>
      <trkpt lat="43.58514" lon="6.13729">
        <ele>441.5</ele>
        <time>2013-12-18T10:08:41Z</time>
      </trkpt>
      <trkpt lat="43.5851" lon="6.1372">
        <ele>441.8</ele>
        <time>2013-12-18T10:08:49Z</time>
      </trkpt>
      <trkpt lat="43.58505" lon="6.1371">
        <ele>442.7</ele>
        <time>2013-12-18T10:08:58Z</time>
      </trkpt>
      <trkpt lat="43.58501" lon="6.137">
        <ele>443</ele>
        <time>2013-12-18T10:09:06Z</time>
      </trkpt>
      <trkpt lat="43.58501" lon="6.13699">
        <ele>443.3</ele>
        <time>2013-12-18T10:09:07Z</time>
      </trkpt>
      <trkpt lat="43.58494" lon="6.1368">
        <ele>443.2</ele>
        <time>2013-12-18T10:09:21Z</time>
      </trkpt>
      <trkpt lat="43.58491" lon="6.13668">
        <ele>443.6</ele>
        <time>2013-12-18T10:09:32Z</time>
      </trkpt>
      <trkpt lat="43.58487" lon="6.13658">
        <ele>444</ele>
        <time>2013-12-18T10:09:41Z</time>
      </trkpt>
      <trkpt lat="43.58484" lon="6.13649">
        <ele>443.7</ele>
        <time>2013-12-18T10:09:48Z</time>
      </trkpt>
      <trkpt lat="43.58482" lon="6.13638">
        <ele>443.3</ele>
        <time>2013-12-18T10:09:56Z</time>
      </trkpt>
      <trkpt lat="43.58478" lon="6.13627">
        <ele>443.5</ele>
        <time>2013-12-18T10:10:02Z</time>
      </trkpt>
      <trkpt lat="43.58474" lon="6.13617">
        <ele>444.3</ele>
        <time>2013-12-18T10:10:09Z</time>
      </trkpt>
      <trkpt lat="43.58473" lon="6.13616">
        <ele>444.6</ele>
        <time>2013-12-18T10:10:10Z</time>
      </trkpt>
      <trkpt lat="43.58466" lon="6.13596">
        <ele>445.1</ele>
        <time>2013-12-18T10:10:26Z</time>
      </trkpt>
      <trkpt lat="43.5846" lon="6.13587">
        <ele>446.6</ele>
        <time>2013-12-18T10:10:35Z</time>
      </trkpt>
      <trkpt lat="43.58456" lon="6.13577">
        <ele>447.4</ele>
        <time>2013-12-18T10:10:43Z</time>
      </trkpt>
      <trkpt lat="43.5845" lon="6.1357">
        <ele>448.3</ele>
        <time>2013-12-18T10:10:51Z</time>
      </trkpt>
      <trkpt lat="43.58445" lon="6.13561">
        <ele>448.5</ele>
        <time>2013-12-18T10:10:58Z</time>
      </trkpt>
      <trkpt lat="43.58439" lon="6.13551">
        <ele>448.8</ele>
        <time>2013-12-18T10:11:07Z</time>
      </trkpt>
      <trkpt lat="43.58434" lon="6.13542">
        <ele>448.9</ele>
        <time>2013-12-18T10:12:12Z</time>
      </trkpt>
      <trkpt lat="43.58433" lon="6.13542">
        <ele>449.2</ele>
        <time>2013-12-18T10:12:13Z</time>
      </trkpt>
      <trkpt lat="43.58429" lon="6.13521">
        <ele>450</ele>
        <time>2013-12-18T10:12:36Z</time>
      </trkpt>
      <trkpt lat="43.58431" lon="6.13509">
        <ele>450.2</ele>
        <time>2013-12-18T10:12:46Z</time>
      </trkpt>
      <trkpt lat="43.5843" lon="6.13498">
        <ele>450.7</ele>
        <time>2013-12-18T10:12:54Z</time>
      </trkpt>
      <trkpt lat="43.5843" lon="6.13487">
        <ele>450.7</ele>
        <time>2013-12-18T10:13:02Z</time>
      </trkpt>
      <trkpt lat="43.5843" lon="6.13475">
        <ele>451.2</ele>
        <time>2013-12-18T10:13:11Z</time>
      </trkpt>
      <trkpt lat="43.58432" lon="6.13464">
        <ele>450.5</ele>
        <time>2013-12-18T10:13:18Z</time>
      </trkpt>
      <trkpt lat="43.58432" lon="6.13462">
        <ele>450.5</ele>
        <time>2013-12-18T10:13:19Z</time>
      </trkpt>
      <trkpt lat="43.58433" lon="6.13441">
        <ele>451.4</ele>
        <time>2013-12-18T10:13:36Z</time>
      </trkpt>
      <trkpt lat="43.58432" lon="6.13429">
        <ele>451.2</ele>
        <time>2013-12-18T10:13:45Z</time>
      </trkpt>
      <trkpt lat="43.5843" lon="6.13419">
        <ele>451.7</ele>
        <time>2013-12-18T10:13:51Z</time>
      </trkpt>
      <trkpt lat="43.58427" lon="6.13408">
        <ele>451.8</ele>
        <time>2013-12-18T10:13:59Z</time>
      </trkpt>
      <trkpt lat="43.58424" lon="6.13396">
        <ele>451.8</ele>
        <time>2013-12-18T10:14:11Z</time>
      </trkpt>
      <trkpt lat="43.58425" lon="6.13384">
        <ele>452</ele>
        <time>2013-12-18T10:14:19Z</time>
      </trkpt>
      <trkpt lat="43.58425" lon="6.13382">
        <ele>452.2</ele>
        <time>2013-12-18T10:14:20Z</time>
      </trkpt>
      <trkpt lat="43.58426" lon="6.13361">
        <ele>452.3</ele>
        <time>2013-12-18T10:14:34Z</time>
      </trkpt>
      <trkpt lat="43.58426" lon="6.1335">
        <ele>452</ele>
        <time>2013-12-18T10:14:41Z</time>
      </trkpt>
      <trkpt lat="43.58427" lon="6.13339">
        <ele>452.1</ele>
        <time>2013-12-18T10:14:51Z</time>
      </trkpt>
      <trkpt lat="43.58426" lon="6.13329">
        <ele>452.7</ele>
        <time>2013-12-18T10:14:58Z</time>
      </trkpt>
      <trkpt lat="43.58424" lon="6.13317">
        <ele>452.8</ele>
        <time>2013-12-18T10:15:05Z</time>
      </trkpt>
      <trkpt lat="43.58419" lon="6.13308">
        <ele>453</ele>
        <time>2013-12-18T10:15:13Z</time>
      </trkpt>
      <trkpt lat="43.58413" lon="6.13301">
        <ele>453.8</ele>
        <time>2013-12-18T10:15:22Z</time>
      </trkpt>
      <trkpt lat="43.58412" lon="6.133">
        <ele>453.8</ele>
        <time>2013-12-18T10:15:23Z</time>
      </trkpt>
      <trkpt lat="43.58401" lon="6.13287">
        <ele>454.1</ele>
        <time>2013-12-18T10:15:35Z</time>
      </trkpt>
      <trkpt lat="43.58394" lon="6.1328">
        <ele>454.4</ele>
        <time>2013-12-18T10:15:43Z</time>
      </trkpt>
      <trkpt lat="43.58386" lon="6.13274">
        <ele>454.8</ele>
        <time>2013-12-18T10:15:53Z</time>
      </trkpt>
      <trkpt lat="43.58378" lon="6.13269">
        <ele>455.5</ele>
        <time>2013-12-18T10:16:01Z</time>
      </trkpt>
      <trkpt lat="43.58371" lon="6.13262">
        <ele>455.7</ele>
        <time>2013-12-18T10:16:10Z</time>
      </trkpt>
      <trkpt lat="43.58366" lon="6.13254">
        <ele>455</ele>
        <time>2013-12-18T10:16:17Z</time>
      </trkpt>
      <trkpt lat="43.58361" lon="6.13245">
        <ele>455.7</ele>
        <time>2013-12-18T10:16:24Z</time>
      </trkpt>
      <trkpt lat="43.5836" lon="6.13245">
        <ele>455.7</ele>
        <time>2013-12-18T10:16:25Z</time>
      </trkpt>
      <trkpt lat="43.58347" lon="6.13232">
        <ele>455.9</ele>
        <time>2013-12-18T10:16:39Z</time>
      </trkpt>
      <trkpt lat="43.58341" lon="6.13223">
        <ele>456.4</ele>
        <time>2013-12-18T10:16:49Z</time>
      </trkpt>
      <trkpt lat="43.58337" lon="6.13214">
        <ele>457.2</ele>
        <time>2013-12-18T10:16:56Z</time>
      </trkpt>
      <trkpt lat="43.58333" lon="6.13203">
        <ele>457.7</ele>
        <time>2013-12-18T10:17:05Z</time>
      </trkpt>
      <trkpt lat="43.5833" lon="6.13193">
        <ele>458.6</ele>
        <time>2013-12-18T10:17:14Z</time>
      </trkpt>
      <trkpt lat="43.58323" lon="6.13185">
        <ele>459.1</ele>
        <time>2013-12-18T10:17:23Z</time>
      </trkpt>
      <trkpt lat="43.5832" lon="6.13174">
        <ele>459.3</ele>
        <time>2013-12-18T10:17:29Z</time>
      </trkpt>
      <trkpt lat="43.5832" lon="6.13172">
        <ele>459.4</ele>
        <time>2013-12-18T10:17:30Z</time>
      </trkpt>
      <trkpt lat="43.58311" lon="6.13155">
        <ele>460.9</ele>
        <time>2013-12-18T10:17:44Z</time>
      </trkpt>
      <trkpt lat="43.58307" lon="6.13145">
        <ele>461.3</ele>
        <time>2013-12-18T10:17:52Z</time>
      </trkpt>
      <trkpt lat="43.58303" lon="6.13135">
        <ele>461.6</ele>
        <time>2013-12-18T10:18:00Z</time>
      </trkpt>
      <trkpt lat="43.58294" lon="6.1313">
        <ele>461.9</ele>
        <time>2013-12-18T10:18:13Z</time>
      </trkpt>
      <trkpt lat="43.58293" lon="6.13118">
        <ele>463</ele>
        <time>2013-12-18T10:19:45Z</time>
      </trkpt>
      <trkpt lat="43.58293" lon="6.13117">
        <ele>462.9</ele>
        <time>2013-12-18T10:19:46Z</time>
      </trkpt>
      <trkpt lat="43.58277" lon="6.13111">
        <ele>464.5</ele>
        <time>2013-12-18T10:20:10Z</time>
      </trkpt>
      <trkpt lat="43.5827" lon="6.13106">
        <ele>465</ele>
        <time>2013-12-18T10:20:25Z</time>
      </trkpt>
      <trkpt lat="43.58262" lon="6.13102">
        <ele>465.9</ele>
        <time>2013-12-18T10:20:32Z</time>
      </trkpt>
      <trkpt lat="43.58253" lon="6.13101">
        <ele>467.5</ele>
        <time>2013-12-18T10:20:41Z</time>
      </trkpt>
      <trkpt lat="43.58245" lon="6.13104">
        <ele>467.8</ele>
        <time>2013-12-18T10:20:50Z</time>
      </trkpt>
      <trkpt lat="43.58244" lon="6.13105">
        <ele>466.5</ele>
        <time>2013-12-18T10:20:51Z</time>
      </trkpt>
      <trkpt lat="43.58228" lon="6.13105">
        <ele>468.3</ele>
        <time>2013-12-18T10:21:13Z</time>
      </trkpt>
      <trkpt lat="43.58221" lon="6.13098">
        <ele>468.2</ele>
        <time>2013-12-18T10:21:23Z</time>
      </trkpt>
      <trkpt lat="43.58216" lon="6.13089">
        <ele>467.4</ele>
        <time>2013-12-18T10:21:32Z</time>
      </trkpt>
      <trkpt lat="43.58209" lon="6.13085">
        <ele>466.7</ele>
        <time>2013-12-18T10:21:39Z</time>
      </trkpt>
      <trkpt lat="43.58202" lon="6.13078">
        <ele>465.3</ele>
        <time>2013-12-18T10:21:49Z</time>
      </trkpt>
      <trkpt lat="43.58198" lon="6.13067">
        <ele>464.2</ele>
        <time>2013-12-18T10:22:00Z</time>
      </trkpt>
      <trkpt lat="43.58198" lon="6.13067">
        <ele>464.2</ele>
        <time>2013-12-18T10:22:01Z</time>
      </trkpt>
      <trkpt lat="43.58186" lon="6.1305">
        <ele>462</ele>
        <time>2013-12-18T10:22:21Z</time>
      </trkpt>
      <trkpt lat="43.58179" lon="6.13043">
        <ele>461.1</ele>
        <time>2013-12-18T10:22:29Z</time>
      </trkpt>
      <trkpt lat="43.58171" lon="6.13039">
        <ele>460.4</ele>
        <time>2013-12-18T10:22:38Z</time>
      </trkpt>
      <trkpt lat="43.58163" lon="6.13036">
        <ele>460.5</ele>
        <time>2013-12-18T10:22:43Z</time>
      </trkpt>
      <trkpt lat="43.58155" lon="6.13036">
        <ele>459</ele>
        <time>2013-12-18T10:22:49Z</time>
      </trkpt>
      <trkpt lat="43.58147" lon="6.1304">
        <ele>458.9</ele>
        <time>2013-12-18T10:22:57Z</time>
      </trkpt>
      <trkpt lat="43.5814" lon="6.13043">
        <ele>458.8</ele>
        <time>2013-12-18T10:23:01Z</time>
      </trkpt>
      <trkpt lat="43.58137" lon="6.13044">
        <ele>458.6</ele>
        <time>2013-12-18T10:23:02Z</time>
      </trkpt>
      <trkpt lat="43.58128" lon="6.1306">
        <ele>457</ele>
        <time>2013-12-18T10:23:19Z</time>
      </trkpt>
      <trkpt lat="43.58122" lon="6.13069">
        <ele>456.2</ele>
        <time>2013-12-18T10:23:26Z</time>
      </trkpt>
      <trkpt lat="43.58117" lon="6.13077">
        <ele>456.4</ele>
        <time>2013-12-18T10:23:35Z</time>
      </trkpt>
      <trkpt lat="43.58113" lon="6.13087">
        <ele>455.8</ele>
        <time>2013-12-18T10:23:42Z</time>
      </trkpt>
      <trkpt lat="43.58109" lon="6.13098">
        <ele>456.7</ele>
        <time>2013-12-18T10:23:49Z</time>
      </trkpt>
      <trkpt lat="43.58103" lon="6.13107">
        <ele>455.6</ele>
        <time>2013-12-18T10:23:58Z</time>
      </trkpt>
      <trkpt lat="43.58095" lon="6.13111">
        <ele>456.1</ele>
        <time>2013-12-18T10:24:07Z</time>
      </trkpt>
      <trkpt lat="43.58094" lon="6.13112">
        <ele>456.1</ele>
        <time>2013-12-18T10:24:08Z</time>
      </trkpt>
      <trkpt lat="43.5808" lon="6.13108">
        <ele>455.5</ele>
        <time>2013-12-18T10:24:25Z</time>
      </trkpt>
      <trkpt lat="43.58073" lon="6.13102">
        <ele>455.9</ele>
        <time>2013-12-18T10:24:35Z</time>
      </trkpt>
      <trkpt lat="43.58068" lon="6.13094">
        <ele>454.8</ele>
        <time>2013-12-18T10:24:42Z</time>
      </trkpt>
      <trkpt lat="43.58062" lon="6.13085">
        <ele>453.7</ele>
        <time>2013-12-18T10:24:50Z</time>
      </trkpt>
      <trkpt lat="43.58056" lon="6.13078">
        <ele>452.9</ele>
        <time>2013-12-18T10:24:59Z</time>
      </trkpt>
      <trkpt lat="43.58049" lon="6.13071">
        <ele>452.6</ele>
        <time>2013-12-18T10:25:06Z</time>
      </trkpt>
      <trkpt lat="43.58043" lon="6.13063">
        <ele>452.9</ele>
        <time>2013-12-18T10:25:17Z</time>
      </trkpt>
      <trkpt lat="43.58042" lon="6.13061">
        <ele>452.9</ele>
        <time>2013-12-18T10:25:18Z</time>
      </trkpt>
      <trkpt lat="43.58032" lon="6.13048">
        <ele>453.2</ele>
        <time>2013-12-18T10:25:29Z</time>
      </trkpt>
      <trkpt lat="43.58024" lon="6.13044">
        <ele>453</ele>
        <time>2013-12-18T10:25:36Z</time>
      </trkpt>
      <trkpt lat="43.58017" lon="6.13037">
        <ele>452.8</ele>
        <time>2013-12-18T10:25:43Z</time>
      </trkpt>
      <trkpt lat="43.58008" lon="6.13035">
        <ele>452.9</ele>
        <time>2013-12-18T10:25:53Z</time>
      </trkpt>
      <trkpt lat="43.58" lon="6.13034">
        <ele>453.1</ele>
        <time>2013-12-18T10:26:02Z</time>
      </trkpt>
      <trkpt lat="43.57992" lon="6.1303">
        <ele>453.3</ele>
        <time>2013-12-18T10:26:10Z</time>
      </trkpt>
      <trkpt lat="43.57984" lon="6.13025">
        <ele>453</ele>
        <time>2013-12-18T10:26:20Z</time>
      </trkpt>
      <trkpt lat="43.57983" lon="6.13025">
        <ele>453.2</ele>
        <time>2013-12-18T10:26:21Z</time>
      </trkpt>
      <trkpt lat="43.57968" lon="6.13027">
        <ele>453.5</ele>
        <time>2013-12-18T10:26:38Z</time>
      </trkpt>
      <trkpt lat="43.5796" lon="6.13026">
        <ele>453.2</ele>
        <time>2013-12-18T10:26:45Z</time>
      </trkpt>
      <trkpt lat="43.57951" lon="6.13027">
        <ele>453.5</ele>
        <time>2013-12-18T10:26:51Z</time>
      </trkpt>
      <trkpt lat="43.57943" lon="6.13027">
        <ele>453.1</ele>
        <time>2013-12-18T10:26:57Z</time>
      </trkpt>
      <trkpt lat="43.57935" lon="6.13028">
        <ele>453.2</ele>
        <time>2013-12-18T10:27:02Z</time>
      </trkpt>
      <trkpt lat="43.57926" lon="6.1303">
        <ele>453.3</ele>
        <time>2013-12-18T10:27:10Z</time>
      </trkpt>
      <trkpt lat="43.57918" lon="6.13033">
        <ele>453.8</ele>
        <time>2013-12-18T10:27:18Z</time>
      </trkpt>
      <trkpt lat="43.5791" lon="6.13035">
        <ele>454</ele>
        <time>2013-12-18T10:27:27Z</time>
      </trkpt>
      <trkpt lat="43.57909" lon="6.13036">
        <ele>453.7</ele>
        <time>2013-12-18T10:27:28Z</time>
      </trkpt>
      <trkpt lat="43.57899" lon="6.13051">
        <ele>454.1</ele>
        <time>2013-12-18T10:29:08Z</time>
      </trkpt>
      <trkpt lat="43.57898" lon="6.13051">
        <ele>454.1</ele>
        <time>2013-12-18T10:29:09Z</time>
      </trkpt>
      <trkpt lat="43.57891" lon="6.13072">
        <ele>454</ele>
        <time>2013-12-18T10:29:32Z</time>
      </trkpt>
      <trkpt lat="43.57888" lon="6.13083">
        <ele>454.7</ele>
        <time>2013-12-18T10:29:45Z</time>
      </trkpt>
      <trkpt lat="43.57885" lon="6.13094">
        <ele>455.9</ele>
        <time>2013-12-18T10:29:54Z</time>
      </trkpt>
      <trkpt lat="43.57883" lon="6.13105">
        <ele>456.7</ele>
        <time>2013-12-18T10:30:05Z</time>
      </trkpt>
      <trkpt lat="43.5788" lon="6.13116">
        <ele>457.3</ele>
        <time>2013-12-18T10:30:12Z</time>
      </trkpt>
      <trkpt lat="43.5788" lon="6.13118">
        <ele>457.3</ele>
        <time>2013-12-18T10:30:13Z</time>
      </trkpt>
      <trkpt lat="43.57875" lon="6.13138">
        <ele>458.8</ele>
        <time>2013-12-18T10:30:26Z</time>
      </trkpt>
      <trkpt lat="43.57874" lon="6.1315">
        <ele>458.6</ele>
        <time>2013-12-18T10:30:34Z</time>
      </trkpt>
      <trkpt lat="43.57872" lon="6.13162">
        <ele>459.3</ele>
        <time>2013-12-18T10:30:43Z</time>
      </trkpt>
      <trkpt lat="43.57871" lon="6.13173">
        <ele>458.9</ele>
        <time>2013-12-18T10:30:49Z</time>
      </trkpt>
      <trkpt lat="43.57871" lon="6.13185">
        <ele>458.8</ele>
        <time>2013-12-18T10:30:56Z</time>
      </trkpt>
      <trkpt lat="43.57869" lon="6.13197">
        <ele>458.6</ele>
        <time>2013-12-18T10:31:04Z</time>
      </trkpt>
      <trkpt lat="43.5787" lon="6.13208">
        <ele>458.4</ele>
        <time>2013-12-18T10:31:10Z</time>
      </trkpt>
      <trkpt lat="43.57872" lon="6.1322">
        <ele>458.3</ele>
        <time>2013-12-18T10:31:16Z</time>
      </trkpt>
      <trkpt lat="43.57872" lon="6.13221">
        <ele>458.2</ele>
        <time>2013-12-18T10:31:17Z</time>
      </trkpt>
      <trkpt lat="43.57871" lon="6.13242">
        <ele>458.4</ele>
        <time>2013-12-18T10:31:31Z</time>
      </trkpt>
      <trkpt lat="43.57869" lon="6.13253">
        <ele>458.2</ele>
        <time>2013-12-18T10:31:37Z</time>
      </trkpt>
      <trkpt lat="43.57869" lon="6.13265">
        <ele>457.7</ele>
        <time>2013-12-18T10:31:45Z</time>
      </trkpt>
      <trkpt lat="43.5787" lon="6.13277">
        <ele>457.8</ele>
        <time>2013-12-18T10:31:53Z</time>
      </trkpt>
      <trkpt lat="43.57869" lon="6.13289">
        <ele>457.5</ele>
        <time>2013-12-18T10:32:02Z</time>
      </trkpt>
      <trkpt lat="43.57869" lon="6.133">
        <ele>457.9</ele>
        <time>2013-12-18T10:32:10Z</time>
      </trkpt>
      <trkpt lat="43.57866" lon="6.13312">
        <ele>457.8</ele>
        <time>2013-12-18T10:32:20Z</time>
      </trkpt>
      <trkpt lat="43.57866" lon="6.13313">
        <ele>457.8</ele>
        <time>2013-12-18T10:32:21Z</time>
      </trkpt>
      <trkpt lat="43.57863" lon="6.13335">
        <ele>458.4</ele>
        <time>2013-12-18T10:32:37Z</time>
      </trkpt>
      <trkpt lat="43.57863" lon="6.13347">
        <ele>457.9</ele>
        <time>2013-12-18T10:32:43Z</time>
      </trkpt>
      <trkpt lat="43.57864" lon="6.13359">
        <ele>458</ele>
        <time>2013-12-18T10:32:50Z</time>
      </trkpt>
      <trkpt lat="43.57863" lon="6.13371">
        <ele>458.8</ele>
        <time>2013-12-18T10:32:58Z</time>
      </trkpt>
      <trkpt lat="43.5786" lon="6.13382">
        <ele>458.9</ele>
        <time>2013-12-18T10:33:05Z</time>
      </trkpt>
      <trkpt lat="43.57856" lon="6.13393">
        <ele>459.1</ele>
        <time>2013-12-18T10:33:14Z</time>
      </trkpt>
      <trkpt lat="43.57854" lon="6.13404">
        <ele>458.9</ele>
        <time>2013-12-18T10:33:21Z</time>
      </trkpt>
      <trkpt lat="43.57854" lon="6.13405">
        <ele>459.1</ele>
        <time>2013-12-18T10:33:22Z</time>
      </trkpt>
      <trkpt lat="43.57845" lon="6.13422">
        <ele>459.6</ele>
        <time>2013-12-18T10:33:35Z</time>
      </trkpt>
      <trkpt lat="43.5784" lon="6.13432">
        <ele>459</ele>
        <time>2013-12-18T10:33:42Z</time>
      </trkpt>
      <trkpt lat="43.57833" lon="6.13439">
        <ele>458.7</ele>
        <time>2013-12-18T10:33:51Z</time>
      </trkpt>
      <trkpt lat="43.57827" lon="6.13448">
        <ele>459.3</ele>
        <time>2013-12-18T10:33:59Z</time>
      </trkpt>
      <trkpt lat="43.57822" lon="6.13457">
        <ele>458.8</ele>
        <time>2013-12-18T10:34:07Z</time>
      </trkpt>
      <trkpt lat="43.57818" lon="6.13468">
        <ele>459.6</ele>
        <time>2013-12-18T10:34:17Z</time>
      </trkpt>
      <trkpt lat="43.57815" lon="6.1348">
        <ele>459.7</ele>
        <time>2013-12-18T10:34:29Z</time>
      </trkpt>
      <trkpt lat="43.57815" lon="6.13481">
        <ele>459.7</ele>
        <time>2013-12-18T10:34:30Z</time>
      </trkpt>
      <trkpt lat="43.5781" lon="6.13502">
        <ele>459.6</ele>
        <time>2013-12-18T10:34:48Z</time>
      </trkpt>
      <trkpt lat="43.57806" lon="6.13513">
        <ele>459.5</ele>
        <time>2013-12-18T10:34:55Z</time>
      </trkpt>
      <trkpt lat="43.57805" lon="6.13524">
        <ele>460.2</ele>
        <time>2013-12-18T10:35:04Z</time>
      </trkpt>
      <trkpt lat="43.57805" lon="6.13535">
        <ele>459.8</ele>
        <time>2013-12-18T10:35:10Z</time>
      </trkpt>
      <trkpt lat="43.57803" lon="6.13547">
        <ele>460.2</ele>
        <time>2013-12-18T10:35:20Z</time>
      </trkpt>
      <trkpt lat="43.57803" lon="6.13559">
        <ele>460.8</ele>
        <time>2013-12-18T10:35:29Z</time>
      </trkpt>
      <trkpt lat="43.57802" lon="6.13571">
        <ele>460.7</ele>
        <time>2013-12-18T10:35:37Z</time>
      </trkpt>
      <trkpt lat="43.57802" lon="6.13572">
        <ele>460.7</ele>
        <time>2013-12-18T10:35:38Z</time>
      </trkpt>
      <trkpt lat="43.578" lon="6.13594">
        <ele>461.1</ele>
        <time>2013-12-18T10:35:53Z</time>
      </trkpt>
      <trkpt lat="43.57798" lon="6.13605">
        <ele>461.2</ele>
        <time>2013-12-18T10:36:00Z</time>
      </trkpt>
      <trkpt lat="43.57794" lon="6.13616">
        <ele>461.4</ele>
        <time>2013-12-18T10:36:08Z</time>
      </trkpt>
      <trkpt lat="43.57793" lon="6.13627">
        <ele>461.4</ele>
        <time>2013-12-18T10:36:14Z</time>
      </trkpt>
      <trkpt lat="43.57791" lon="6.13637">
        <ele>461.6</ele>
        <time>2013-12-18T10:36:21Z</time>
      </trkpt>
      <trkpt lat="43.57788" lon="6.13648">
        <ele>461.9</ele>
        <time>2013-12-18T10:36:30Z</time>
      </trkpt>
      <trkpt lat="43.57787" lon="6.13659">
        <ele>462.3</ele>
        <time>2013-12-18T10:36:38Z</time>
      </trkpt>
      <trkpt lat="43.57787" lon="6.13662">
        <ele>462.2</ele>
        <time>2013-12-18T10:36:39Z</time>
      </trkpt>
      <trkpt lat="43.57783" lon="6.13682">
        <ele>463.8</ele>
        <time>2013-12-18T10:36:53Z</time>
      </trkpt>
      <trkpt lat="43.57779" lon="6.13694">
        <ele>465</ele>
        <time>2013-12-18T10:37:04Z</time>
      </trkpt>
      <trkpt lat="43.57777" lon="6.13705">
        <ele>466.6</ele>
        <time>2013-12-18T10:37:15Z</time>
      </trkpt>
      <trkpt lat="43.57775" lon="6.13717">
        <ele>467.9</ele>
        <time>2013-12-18T10:37:26Z</time>
      </trkpt>
      <trkpt lat="43.57772" lon="6.13728">
        <ele>468.9</ele>
        <time>2013-12-18T10:37:36Z</time>
      </trkpt>
      <trkpt lat="43.57768" lon="6.13738">
        <ele>469.4</ele>
        <time>2013-12-18T10:37:51Z</time>
      </trkpt>
      <trkpt lat="43.57767" lon="6.13739">
        <ele>469.4</ele>
        <time>2013-12-18T10:37:52Z</time>
      </trkpt>
      <trkpt lat="43.57762" lon="6.1376">
        <ele>470.1</ele>
        <time>2013-12-18T10:38:10Z</time>
      </trkpt>
      <trkpt lat="43.57758" lon="6.13771">
        <ele>470.6</ele>
        <time>2013-12-18T10:38:18Z</time>
      </trkpt>
      <trkpt lat="43.57755" lon="6.13781">
        <ele>471.2</ele>
        <time>2013-12-18T10:38:26Z</time>
      </trkpt>
      <trkpt lat="43.57749" lon="6.13791">
        <ele>471.7</ele>
        <time>2013-12-18T10:38:33Z</time>
      </trkpt>
      <trkpt lat="43.57745" lon="6.13802">
        <ele>472</ele>
        <time>2013-12-18T10:38:40Z</time>
      </trkpt>
      <trkpt lat="43.57743" lon="6.13813">
        <ele>472.4</ele>
        <time>2013-12-18T10:38:48Z</time>
      </trkpt>
      <trkpt lat="43.57739" lon="6.13824">
        <ele>473</ele>
        <time>2013-12-18T10:38:55Z</time>
      </trkpt>
      <trkpt lat="43.57739" lon="6.13825">
        <ele>473.1</ele>
        <time>2013-12-18T10:38:56Z</time>
      </trkpt>
      <trkpt lat="43.5773" lon="6.13845">
        <ele>474.4</ele>
        <time>2013-12-18T10:39:14Z</time>
      </trkpt>
      <trkpt lat="43.57727" lon="6.13856">
        <ele>474.3</ele>
        <time>2013-12-18T10:39:22Z</time>
      </trkpt>
      <trkpt lat="43.57721" lon="6.13864">
        <ele>475.3</ele>
        <time>2013-12-18T10:39:30Z</time>
      </trkpt>
      <trkpt lat="43.57718" lon="6.13875">
        <ele>476.5</ele>
        <time>2013-12-18T10:39:38Z</time>
      </trkpt>
      <trkpt lat="43.57714" lon="6.13885">
        <ele>476.6</ele>
        <time>2013-12-18T10:39:46Z</time>
      </trkpt>
      <trkpt lat="43.57707" lon="6.13892">
        <ele>477.1</ele>
        <time>2013-12-18T10:39:55Z</time>
      </trkpt>
      <trkpt lat="43.57704" lon="6.13903">
        <ele>477.9</ele>
        <time>2013-12-18T10:40:54Z</time>
      </trkpt>
      <trkpt lat="43.57705" lon="6.13904">
        <ele>477.9</ele>
        <time>2013-12-18T10:40:55Z</time>
      </trkpt>
      <trkpt lat="43.57703" lon="6.13916">
        <ele>477.5</ele>
        <time>2013-12-18T10:42:05Z</time>
      </trkpt>
      <trkpt lat="43.57706" lon="6.13898">
        <ele>477.5</ele>
        <time>2013-12-18T10:42:53Z</time>
      </trkpt>
      <trkpt lat="43.57699" lon="6.13905">
        <ele>478</ele>
        <time>2013-12-18T10:43:41Z</time>
      </trkpt>
      <trkpt lat="43.57698" lon="6.13906">
        <ele>478</ele>
        <time>2013-12-18T10:43:42Z</time>
      </trkpt>
      <trkpt lat="43.57695" lon="6.13928">
        <ele>477.8</ele>
        <time>2013-12-18T10:43:55Z</time>
      </trkpt>
      <trkpt lat="43.57694" lon="6.1394">
        <ele>478.4</ele>
        <time>2013-12-18T10:44:01Z</time>
      </trkpt>
      <trkpt lat="43.5769" lon="6.1395">
        <ele>477.7</ele>
        <time>2013-12-18T10:44:08Z</time>
      </trkpt>
      <trkpt lat="43.57687" lon="6.13961">
        <ele>478</ele>
        <time>2013-12-18T10:44:13Z</time>
      </trkpt>
      <trkpt lat="43.57686" lon="6.13973">
        <ele>477.2</ele>
        <time>2013-12-18T10:44:21Z</time>
      </trkpt>
      <trkpt lat="43.57682" lon="6.13984">
        <ele>476.8</ele>
        <time>2013-12-18T10:44:29Z</time>
      </trkpt>
      <trkpt lat="43.57679" lon="6.13994">
        <ele>475.9</ele>
        <time>2013-12-18T10:44:35Z</time>
      </trkpt>
      <trkpt lat="43.57675" lon="6.14004">
        <ele>475.7</ele>
        <time>2013-12-18T10:44:41Z</time>
      </trkpt>
      <trkpt lat="43.57671" lon="6.14014">
        <ele>475.4</ele>
        <time>2013-12-18T10:44:48Z</time>
      </trkpt>
      <trkpt lat="43.57671" lon="6.14016">
        <ele>475.4</ele>
        <time>2013-12-18T10:44:49Z</time>
      </trkpt>
      <trkpt lat="43.57664" lon="6.14034">
        <ele>474.8</ele>
        <time>2013-12-18T10:45:03Z</time>
      </trkpt>
      <trkpt lat="43.57661" lon="6.14045">
        <ele>474.5</ele>
        <time>2013-12-18T10:45:12Z</time>
      </trkpt>
      <trkpt lat="43.57657" lon="6.14056">
        <ele>473.3</ele>
        <time>2013-12-18T10:45:21Z</time>
      </trkpt>
      <trkpt lat="43.57656" lon="6.14068">
        <ele>473.2</ele>
        <time>2013-12-18T10:45:29Z</time>
      </trkpt>
      <trkpt lat="43.57655" lon="6.14078">
        <ele>472</ele>
        <time>2013-12-18T10:45:37Z</time>
      </trkpt>
      <trkpt lat="43.57654" lon="6.14089">
        <ele>471.1</ele>
        <time>2013-12-18T10:45:44Z</time>
      </trkpt>
      <trkpt lat="43.57656" lon="6.141">
        <ele>470.3</ele>
        <time>2013-12-18T10:45:51Z</time>
      </trkpt>
      <trkpt lat="43.57656" lon="6.14103">
        <ele>470.3</ele>
        <time>2013-12-18T10:45:52Z</time>
      </trkpt>
      <trkpt lat="43.57658" lon="6.14123">
        <ele>469.1</ele>
        <time>2013-12-18T10:46:06Z</time>
      </trkpt>
      <trkpt lat="43.57657" lon="6.14134">
        <ele>467.9</ele>
        <time>2013-12-18T10:46:15Z</time>
      </trkpt>
      <trkpt lat="43.57657" lon="6.14146">
        <ele>468</ele>
        <time>2013-12-18T10:46:22Z</time>
      </trkpt>
      <trkpt lat="43.57658" lon="6.14157">
        <ele>466.2</ele>
        <time>2013-12-18T10:46:30Z</time>
      </trkpt>
      <trkpt lat="43.5766" lon="6.14169">
        <ele>465.2</ele>
        <time>2013-12-18T10:46:37Z</time>
      </trkpt>
      <trkpt lat="43.57659" lon="6.14181">
        <ele>464.1</ele>
        <time>2013-12-18T10:46:49Z</time>
      </trkpt>
      <trkpt lat="43.57658" lon="6.14192">
        <ele>463.5</ele>
        <time>2013-12-18T10:46:58Z</time>
      </trkpt>
      <trkpt lat="43.57657" lon="6.14193">
        <ele>463.3</ele>
        <time>2013-12-18T10:46:59Z</time>
      </trkpt>
      <trkpt lat="43.57647" lon="6.1421">
        <ele>461.3</ele>
        <time>2013-12-18T10:47:18Z</time>
      </trkpt>
      <trkpt lat="43.57642" lon="6.1422">
        <ele>460.9</ele>
        <time>2013-12-18T10:47:26Z</time>
      </trkpt>
      <trkpt lat="43.57638" lon="6.14231">
        <ele>460.3</ele>
        <time>2013-12-18T10:47:34Z</time>
      </trkpt>
      <trkpt lat="43.57633" lon="6.14241">
        <ele>459.6</ele>
        <time>2013-12-18T10:47:43Z</time>
      </trkpt>
      <trkpt lat="43.57628" lon="6.14249">
        <ele>459.6</ele>
        <time>2013-12-18T10:47:50Z</time>
      </trkpt>
      <trkpt lat="43.57622" lon="6.14257">
        <ele>458.9</ele>
        <time>2013-12-18T10:47:57Z</time>
      </trkpt>
      <trkpt lat="43.57616" lon="6.14265">
        <ele>458.3</ele>
        <time>2013-12-18T10:48:05Z</time>
      </trkpt>
      <trkpt lat="43.57614" lon="6.14266">
        <ele>458.3</ele>
        <time>2013-12-18T10:48:06Z</time>
      </trkpt>
      <trkpt lat="43.57601" lon="6.14278">
        <ele>456.8</ele>
        <time>2013-12-18T10:48:20Z</time>
      </trkpt>
      <trkpt lat="43.57594" lon="6.14284">
        <ele>456.6</ele>
        <time>2013-12-18T10:48:27Z</time>
      </trkpt>
      <trkpt lat="43.57588" lon="6.14292">
        <ele>456.7</ele>
        <time>2013-12-18T10:48:35Z</time>
      </trkpt>
      <trkpt lat="43.57581" lon="6.14299">
        <ele>457.2</ele>
        <time>2013-12-18T10:48:43Z</time>
      </trkpt>
      <trkpt lat="43.57574" lon="6.14307">
        <ele>457.3</ele>
        <time>2013-12-18T10:48:51Z</time>
      </trkpt>
      <trkpt lat="43.5757" lon="6.14316">
        <ele>457.5</ele>
        <time>2013-12-18T10:48:59Z</time>
      </trkpt>
      <trkpt lat="43.57566" lon="6.14328">
        <ele>456.7</ele>
        <time>2013-12-18T10:49:07Z</time>
      </trkpt>
      <trkpt lat="43.57565" lon="6.14329">
        <ele>456.5</ele>
        <time>2013-12-18T10:49:08Z</time>
      </trkpt>
      <trkpt lat="43.57562" lon="6.1435">
        <ele>455.9</ele>
        <time>2013-12-18T10:49:20Z</time>
      </trkpt>
      <trkpt lat="43.5756" lon="6.14361">
        <ele>455.5</ele>
        <time>2013-12-18T10:49:27Z</time>
      </trkpt>
      <trkpt lat="43.57554" lon="6.1437">
        <ele>454.9</ele>
        <time>2013-12-18T10:49:35Z</time>
      </trkpt>
      <trkpt lat="43.57547" lon="6.14372">
        <ele>454</ele>
        <time>2013-12-18T10:49:41Z</time>
      </trkpt>
      <trkpt lat="43.57542" lon="6.14381">
        <ele>454</ele>
        <time>2013-12-18T10:49:49Z</time>
      </trkpt>
      <trkpt lat="43.57535" lon="6.14387">
        <ele>453.1</ele>
        <time>2013-12-18T10:49:58Z</time>
      </trkpt>
      <trkpt lat="43.57528" lon="6.14393">
        <ele>453.2</ele>
        <time>2013-12-18T10:50:05Z</time>
      </trkpt>
      <trkpt lat="43.57521" lon="6.144">
        <ele>452.5</ele>
        <time>2013-12-18T10:50:12Z</time>
      </trkpt>
      <trkpt lat="43.5752" lon="6.14401">
        <ele>452.4</ele>
        <time>2013-12-18T10:50:13Z</time>
      </trkpt>
      <trkpt lat="43.57507" lon="6.1441">
        <ele>452.4</ele>
        <time>2013-12-18T10:50:26Z</time>
      </trkpt>
      <trkpt lat="43.575" lon="6.14416">
        <ele>452</ele>
        <time>2013-12-18T10:50:32Z</time>
      </trkpt>
      <trkpt lat="43.57495" lon="6.14423">
        <ele>451.3</ele>
        <time>2013-12-18T10:50:40Z</time>
      </trkpt>
      <trkpt lat="43.5749" lon="6.14434">
        <ele>451.4</ele>
        <time>2013-12-18T10:50:46Z</time>
      </trkpt>
      <trkpt lat="43.57488" lon="6.14445">
        <ele>451.3</ele>
        <time>2013-12-18T10:50:53Z</time>
      </trkpt>
      <trkpt lat="43.57487" lon="6.14455">
        <ele>451</ele>
        <time>2013-12-18T10:50:59Z</time>
      </trkpt>
      <trkpt lat="43.57484" lon="6.14465">
        <ele>450.6</ele>
        <time>2013-12-18T10:51:05Z</time>
      </trkpt>
      <trkpt lat="43.57478" lon="6.14473">
        <ele>450.6</ele>
        <time>2013-12-18T10:51:12Z</time>
      </trkpt>
      <trkpt lat="43.57471" lon="6.1448">
        <ele>450</ele>
        <time>2013-12-18T10:51:20Z</time>
      </trkpt>
      <trkpt lat="43.5747" lon="6.1448">
        <ele>450.1</ele>
        <time>2013-12-18T10:51:21Z</time>
      </trkpt>
      <trkpt lat="43.57456" lon="6.14492">
        <ele>449.1</ele>
        <time>2013-12-18T10:51:39Z</time>
      </trkpt>
      <trkpt lat="43.57447" lon="6.14494">
        <ele>449.1</ele>
        <time>2013-12-18T10:51:48Z</time>
      </trkpt>
      <trkpt lat="43.5744" lon="6.145">
        <ele>449.3</ele>
        <time>2013-12-18T10:51:56Z</time>
      </trkpt>
      <trkpt lat="43.57433" lon="6.14505">
        <ele>449.2</ele>
        <time>2013-12-18T10:52:03Z</time>
      </trkpt>
      <trkpt lat="43.57428" lon="6.14515">
        <ele>448.7</ele>
        <time>2013-12-18T10:52:08Z</time>
      </trkpt>
      <trkpt lat="43.57422" lon="6.14524">
        <ele>449.3</ele>
        <time>2013-12-18T10:52:16Z</time>
      </trkpt>
      <trkpt lat="43.57416" lon="6.14532">
        <ele>448.9</ele>
        <time>2013-12-18T10:52:23Z</time>
      </trkpt>
      <trkpt lat="43.57415" lon="6.14533">
        <ele>448.6</ele>
        <time>2013-12-18T10:52:24Z</time>
      </trkpt>
      <trkpt lat="43.57406" lon="6.1455">
        <ele>448.3</ele>
        <time>2013-12-18T10:52:38Z</time>
      </trkpt>
      <trkpt lat="43.574" lon="6.14559">
        <ele>448.4</ele>
        <time>2013-12-18T10:52:45Z</time>
      </trkpt>
      <trkpt lat="43.57399" lon="6.1457">
        <ele>448</ele>
        <time>2013-12-18T10:52:51Z</time>
      </trkpt>
      <trkpt lat="43.57397" lon="6.14581">
        <ele>448.4</ele>
        <time>2013-12-18T10:52:58Z</time>
      </trkpt>
      <trkpt lat="43.57392" lon="6.1459">
        <ele>448.6</ele>
        <time>2013-12-18T10:53:06Z</time>
      </trkpt>
      <trkpt lat="43.57385" lon="6.14597">
        <ele>448.8</ele>
        <time>2013-12-18T10:53:13Z</time>
      </trkpt>
      <trkpt lat="43.57382" lon="6.14608">
        <ele>448.6</ele>
        <time>2013-12-18T10:53:20Z</time>
      </trkpt>
      <trkpt lat="43.57378" lon="6.14618">
        <ele>448.6</ele>
        <time>2013-12-18T10:53:27Z</time>
      </trkpt>
      <trkpt lat="43.57377" lon="6.14619">
        <ele>448.6</ele>
        <time>2013-12-18T10:53:28Z</time>
      </trkpt>
      <trkpt lat="43.57369" lon="6.14635">
        <ele>448.3</ele>
        <time>2013-12-18T10:53:40Z</time>
      </trkpt>
      <trkpt lat="43.57361" lon="6.14643">
        <ele>447.7</ele>
        <time>2013-12-18T10:53:47Z</time>
      </trkpt>
      <trkpt lat="43.57357" lon="6.14652">
        <ele>447.8</ele>
        <time>2013-12-18T10:53:54Z</time>
      </trkpt>
      <trkpt lat="43.57355" lon="6.14663">
        <ele>447.7</ele>
        <time>2013-12-18T10:54:00Z</time>
      </trkpt>
      <trkpt lat="43.57351" lon="6.14673">
        <ele>447.6</ele>
        <time>2013-12-18T10:54:07Z</time>
      </trkpt>
      <trkpt lat="43.57349" lon="6.14684">
        <ele>447.5</ele>
        <time>2013-12-18T10:54:14Z</time>
      </trkpt>
      <trkpt lat="43.57345" lon="6.14694">
        <ele>447.7</ele>
        <time>2013-12-18T10:54:21Z</time>
      </trkpt>
      <trkpt lat="43.57341" lon="6.14704">
        <ele>447.4</ele>
        <time>2013-12-18T10:54:29Z</time>
      </trkpt>
      <trkpt lat="43.5734" lon="6.14705">
        <ele>447.7</ele>
        <time>2013-12-18T10:54:30Z</time>
      </trkpt>
      <trkpt lat="43.57333" lon="6.14724">
        <ele>448</ele>
        <time>2013-12-18T10:54:44Z</time>
      </trkpt>
      <trkpt lat="43.57328" lon="6.14734">
        <ele>448.5</ele>
        <time>2013-12-18T10:54:52Z</time>
      </trkpt>
      <trkpt lat="43.57326" lon="6.14746">
        <ele>448.2</ele>
        <time>2013-12-18T10:55:14Z</time>
      </trkpt>
      <trkpt lat="43.57322" lon="6.14757">
        <ele>449.1</ele>
        <time>2013-12-18T10:55:28Z</time>
      </trkpt>
      <trkpt lat="43.57316" lon="6.14764">
        <ele>449.5</ele>
        <time>2013-12-18T10:55:38Z</time>
      </trkpt>
      <trkpt lat="43.57315" lon="6.14765">
        <ele>449.7</ele>
        <time>2013-12-18T10:55:39Z</time>
      </trkpt>
      <trkpt lat="43.57303" lon="6.1478">
        <ele>450.4</ele>
        <time>2013-12-18T10:55:53Z</time>
      </trkpt>
      <trkpt lat="43.57296" lon="6.14786">
        <ele>450</ele>
        <time>2013-12-18T10:56:01Z</time>
      </trkpt>
      <trkpt lat="43.57291" lon="6.14795">
        <ele>449.8</ele>
        <time>2013-12-18T10:56:09Z</time>
      </trkpt>
      <trkpt lat="43.57285" lon="6.14804">
        <ele>449.7</ele>
        <time>2013-12-18T10:56:17Z</time>
      </trkpt>
      <trkpt lat="43.57279" lon="6.14812">
        <ele>449.9</ele>
        <time>2013-12-18T10:56:24Z</time>
      </trkpt>
      <trkpt lat="43.57273" lon="6.14821">
        <ele>449.6</ele>
        <time>2013-12-18T10:56:32Z</time>
      </trkpt>
      <trkpt lat="43.57268" lon="6.14829">
        <ele>450.2</ele>
        <time>2013-12-18T10:56:38Z</time>
      </trkpt>
      <trkpt lat="43.57264" lon="6.1484">
        <ele>450.4</ele>
        <time>2013-12-18T10:56:45Z</time>
      </trkpt>
      <trkpt lat="43.57263" lon="6.14842">
        <ele>450.5</ele>
        <time>2013-12-18T10:56:46Z</time>
      </trkpt>
      <trkpt lat="43.57259" lon="6.14862">
        <ele>452</ele>
        <time>2013-12-18T10:56:58Z</time>
      </trkpt>
      <trkpt lat="43.57257" lon="6.14873">
        <ele>452.5</ele>
        <time>2013-12-18T10:57:06Z</time>
      </trkpt>
      <trkpt lat="43.57255" lon="6.14884">
        <ele>452.7</ele>
        <time>2013-12-18T10:57:14Z</time>
      </trkpt>
      <trkpt lat="43.57253" lon="6.14896">
        <ele>453.1</ele>
        <time>2013-12-18T10:57:23Z</time>
      </trkpt>
      <trkpt lat="43.57252" lon="6.14907">
        <ele>453.2</ele>
        <time>2013-12-18T10:57:31Z</time>
      </trkpt>
      <trkpt lat="43.5725" lon="6.14919">
        <ele>454</ele>
        <time>2013-12-18T10:57:39Z</time>
      </trkpt>
      <trkpt lat="43.57247" lon="6.1493">
        <ele>454.4</ele>
        <time>2013-12-18T10:57:47Z</time>
      </trkpt>
      <trkpt lat="43.57246" lon="6.14931">
        <ele>454.5</ele>
        <time>2013-12-18T10:57:48Z</time>
      </trkpt>
      <trkpt lat="43.57239" lon="6.14952">
        <ele>453.6</ele>
        <time>2013-12-18T10:58:03Z</time>
      </trkpt>
      <trkpt lat="43.57236" lon="6.14964">
        <ele>453.4</ele>
        <time>2013-12-18T10:58:10Z</time>
      </trkpt>
      <trkpt lat="43.57233" lon="6.14974">
        <ele>453.3</ele>
        <time>2013-12-18T10:58:18Z</time>
      </trkpt>
      <trkpt lat="43.57235" lon="6.14985">
        <ele>452</ele>
        <time>2013-12-18T10:58:24Z</time>
      </trkpt>
      <trkpt lat="43.57236" lon="6.14997">
        <ele>451.4</ele>
        <time>2013-12-18T10:58:32Z</time>
      </trkpt>
      <trkpt lat="43.57236" lon="6.15008">
        <ele>450.2</ele>
        <time>2013-12-18T10:58:40Z</time>
      </trkpt>
      <trkpt lat="43.57235" lon="6.1502">
        <ele>448.9</ele>
        <time>2013-12-18T10:58:48Z</time>
      </trkpt>
      <trkpt lat="43.57235" lon="6.15022">
        <ele>448.6</ele>
        <time>2013-12-18T10:58:49Z</time>
      </trkpt>
      <trkpt lat="43.57232" lon="6.15043">
        <ele>445.2</ele>
        <time>2013-12-18T10:59:07Z</time>
      </trkpt>
      <trkpt lat="43.57228" lon="6.15053">
        <ele>443.4</ele>
        <time>2013-12-18T10:59:16Z</time>
      </trkpt>
      <trkpt lat="43.57224" lon="6.15064">
        <ele>442.4</ele>
        <time>2013-12-18T10:59:24Z</time>
      </trkpt>
      <trkpt lat="43.57219" lon="6.15073">
        <ele>442.1</ele>
        <time>2013-12-18T10:59:42Z</time>
      </trkpt>
      <trkpt lat="43.57217" lon="6.15084">
        <ele>442.6</ele>
        <time>2013-12-18T10:59:49Z</time>
      </trkpt>
      <trkpt lat="43.57216" lon="6.15085">
        <ele>442.3</ele>
        <time>2013-12-18T10:59:50Z</time>
      </trkpt>
      <trkpt lat="43.57206" lon="6.151">
        <ele>441.1</ele>
        <time>2013-12-18T11:00:01Z</time>
      </trkpt>
      <trkpt lat="43.572" lon="6.15108">
        <ele>440.6</ele>
        <time>2013-12-18T11:00:08Z</time>
      </trkpt>
      <trkpt lat="43.57194" lon="6.15117">
        <ele>439.9</ele>
        <time>2013-12-18T11:00:14Z</time>
      </trkpt>
      <trkpt lat="43.57187" lon="6.15124">
        <ele>440</ele>
        <time>2013-12-18T11:00:21Z</time>
      </trkpt>
      <trkpt lat="43.57181" lon="6.15133">
        <ele>439.5</ele>
        <time>2013-12-18T11:00:28Z</time>
      </trkpt>
      <trkpt lat="43.57175" lon="6.15141">
        <ele>438.7</ele>
        <time>2013-12-18T11:00:34Z</time>
      </trkpt>
      <trkpt lat="43.57172" lon="6.15152">
        <ele>439.2</ele>
        <time>2013-12-18T11:01:01Z</time>
      </trkpt>
      <trkpt lat="43.57171" lon="6.15153">
        <ele>439.3</ele>
        <time>2013-12-18T11:01:02Z</time>
      </trkpt>
      <trkpt lat="43.57179" lon="6.1516">
        <ele>437.6</ele>
        <time>2013-12-18T11:02:17Z</time>
      </trkpt>
      <trkpt lat="43.57165" lon="6.15145">
        <ele>437.7</ele>
        <time>2013-12-18T11:02:58Z</time>
      </trkpt>
      <trkpt lat="43.57171" lon="6.15153">
        <ele>438.7</ele>
        <time>2013-12-18T11:04:43Z</time>
      </trkpt>
      <trkpt lat="43.57172" lon="6.15153">
        <ele>438.7</ele>
        <time>2013-12-18T11:04:44Z</time>
      </trkpt>
      <trkpt lat="43.57164" lon="6.15172">
        <ele>438.1</ele>
        <time>2013-12-18T11:05:41Z</time>
      </trkpt>
      <trkpt lat="43.57169" lon="6.15182">
        <ele>438.1</ele>
        <time>2013-12-18T11:05:58Z</time>
      </trkpt>
      <trkpt lat="43.57169" lon="6.15182">
        <ele>438.1</ele>
        <time>2013-12-18T11:05:59Z</time>
      </trkpt>
      <trkpt lat="43.5717" lon="6.15183">
        <ele>440.2</ele>
        <time>2013-12-18T11:08:57Z</time>
      </trkpt>
      <trkpt lat="43.5717" lon="6.15184">
        <ele>439.9</ele>
        <time>2013-12-18T11:08:58Z</time>
      </trkpt>
      <trkpt lat="43.57159" lon="6.15199">
        <ele>439.4</ele>
        <time>2013-12-18T11:09:40Z</time>
      </trkpt>
      <trkpt lat="43.57152" lon="6.15207">
        <ele>439.6</ele>
        <time>2013-12-18T11:09:48Z</time>
      </trkpt>
      <trkpt lat="43.57149" lon="6.15218">
        <ele>439.7</ele>
        <time>2013-12-18T11:10:04Z</time>
      </trkpt>
      <trkpt lat="43.57148" lon="6.15219">
        <ele>439.7</ele>
        <time>2013-12-18T11:10:05Z</time>
      </trkpt>
      <trkpt lat="43.5714" lon="6.15235">
        <ele>439.7</ele>
        <time>2013-12-18T11:10:16Z</time>
      </trkpt>
      <trkpt lat="43.57136" lon="6.15244">
        <ele>440.5</ele>
        <time>2013-12-18T11:10:27Z</time>
      </trkpt>
      <trkpt lat="43.57135" lon="6.15255">
        <ele>441.2</ele>
        <time>2013-12-18T11:10:35Z</time>
      </trkpt>
      <trkpt lat="43.57133" lon="6.15267">
        <ele>441.4</ele>
        <time>2013-12-18T11:10:44Z</time>
      </trkpt>
      <trkpt lat="43.57131" lon="6.15278">
        <ele>442</ele>
        <time>2013-12-18T11:10:53Z</time>
      </trkpt>
      <trkpt lat="43.5713" lon="6.1529">
        <ele>441.9</ele>
        <time>2013-12-18T11:11:00Z</time>
      </trkpt>
      <trkpt lat="43.57126" lon="6.153">
        <ele>442.7</ele>
        <time>2013-12-18T11:11:11Z</time>
      </trkpt>
      <trkpt lat="43.57125" lon="6.15301">
        <ele>442.7</ele>
        <time>2013-12-18T11:11:12Z</time>
      </trkpt>
      <trkpt lat="43.57111" lon="6.15311">
        <ele>443.3</ele>
        <time>2013-12-18T11:11:28Z</time>
      </trkpt>
      <trkpt lat="43.57102" lon="6.15313">
        <ele>444.1</ele>
        <time>2013-12-18T11:11:36Z</time>
      </trkpt>
      <trkpt lat="43.57094" lon="6.15314">
        <ele>444.1</ele>
        <time>2013-12-18T11:11:46Z</time>
      </trkpt>
      <trkpt lat="43.57087" lon="6.1532">
        <ele>444.7</ele>
        <time>2013-12-18T11:11:53Z</time>
      </trkpt>
      <trkpt lat="43.57081" lon="6.15327">
        <ele>444.7</ele>
        <time>2013-12-18T11:12:00Z</time>
      </trkpt>
      <trkpt lat="43.57076" lon="6.15337">
        <ele>444.8</ele>
        <time>2013-12-18T11:12:09Z</time>
      </trkpt>
      <trkpt lat="43.57074" lon="6.1535">
        <ele>445.1</ele>
        <time>2013-12-18T11:12:18Z</time>
      </trkpt>
      <trkpt lat="43.57074" lon="6.15352">
        <ele>445.4</ele>
        <time>2013-12-18T11:12:19Z</time>
      </trkpt>
      <trkpt lat="43.57065" lon="6.15368">
        <ele>444.7</ele>
        <time>2013-12-18T11:12:32Z</time>
      </trkpt>
      <trkpt lat="43.57059" lon="6.15377">
        <ele>444.4</ele>
        <time>2013-12-18T11:12:40Z</time>
      </trkpt>
      <trkpt lat="43.57054" lon="6.15387">
        <ele>443.7</ele>
        <time>2013-12-18T11:12:48Z</time>
      </trkpt>
      <trkpt lat="43.5705" lon="6.15397">
        <ele>443.4</ele>
        <time>2013-12-18T11:12:56Z</time>
      </trkpt>
      <trkpt lat="43.57046" lon="6.15408">
        <ele>442.7</ele>
        <time>2013-12-18T11:13:05Z</time>
      </trkpt>
      <trkpt lat="43.57042" lon="6.15418">
        <ele>442.4</ele>
        <time>2013-12-18T11:13:12Z</time>
      </trkpt>
      <trkpt lat="43.57038" lon="6.15428">
        <ele>441.9</ele>
        <time>2013-12-18T11:13:18Z</time>
      </trkpt>
      <trkpt lat="43.57035" lon="6.15438">
        <ele>441.7</ele>
        <time>2013-12-18T11:13:26Z</time>
      </trkpt>
      <trkpt lat="43.57034" lon="6.15441">
        <ele>441.7</ele>
        <time>2013-12-18T11:13:27Z</time>
      </trkpt>
      <trkpt lat="43.57029" lon="6.15458">
        <ele>440.3</ele>
        <time>2013-12-18T11:13:42Z</time>
      </trkpt>
      <trkpt lat="43.57023" lon="6.15467">
        <ele>439.1</ele>
        <time>2013-12-18T11:13:50Z</time>
      </trkpt>
      <trkpt lat="43.57018" lon="6.15477">
        <ele>436.9</ele>
        <time>2013-12-18T11:13:59Z</time>
      </trkpt>
      <trkpt lat="43.57014" lon="6.15488">
        <ele>437</ele>
        <time>2013-12-18T11:14:30Z</time>
      </trkpt>
      <trkpt lat="43.57013" lon="6.15488">
        <ele>437.1</ele>
        <time>2013-12-18T11:14:31Z</time>
      </trkpt>
      <trkpt lat="43.57004" lon="6.15508">
        <ele>434.9</ele>
        <time>2013-12-18T11:15:20Z</time>
      </trkpt>
      <trkpt lat="43.56998" lon="6.15516">
        <ele>433.8</ele>
        <time>2013-12-18T11:15:30Z</time>
      </trkpt>
      <trkpt lat="43.56994" lon="6.15526">
        <ele>433.3</ele>
        <time>2013-12-18T11:15:38Z</time>
      </trkpt>
      <trkpt lat="43.56993" lon="6.15526">
        <ele>433.1</ele>
        <time>2013-12-18T11:15:39Z</time>
      </trkpt>
      <trkpt lat="43.5698" lon="6.1554">
        <ele>431.1</ele>
        <time>2013-12-18T11:15:54Z</time>
      </trkpt>
      <trkpt lat="43.56974" lon="6.15547">
        <ele>430.5</ele>
        <time>2013-12-18T11:16:06Z</time>
      </trkpt>
      <trkpt lat="43.5697" lon="6.15557">
        <ele>429</ele>
        <time>2013-12-18T11:16:19Z</time>
      </trkpt>
      <trkpt lat="43.56964" lon="6.15565">
        <ele>429.1</ele>
        <time>2013-12-18T11:16:28Z</time>
      </trkpt>
      <trkpt lat="43.56957" lon="6.15571">
        <ele>429.2</ele>
        <time>2013-12-18T11:16:34Z</time>
      </trkpt>
      <trkpt lat="43.5695" lon="6.15577">
        <ele>428.6</ele>
        <time>2013-12-18T11:16:41Z</time>
      </trkpt>
      <trkpt lat="43.56949" lon="6.15579">
        <ele>428.6</ele>
        <time>2013-12-18T11:16:42Z</time>
      </trkpt>
      <trkpt lat="43.56944" lon="6.156">
        <ele>427.1</ele>
        <time>2013-12-18T11:16:55Z</time>
      </trkpt>
      <trkpt lat="43.5694" lon="6.15611">
        <ele>426.8</ele>
        <time>2013-12-18T11:17:05Z</time>
      </trkpt>
      <trkpt lat="43.5694" lon="6.15623">
        <ele>426.6</ele>
        <time>2013-12-18T11:17:19Z</time>
      </trkpt>
      <trkpt lat="43.56937" lon="6.15635">
        <ele>426.7</ele>
        <time>2013-12-18T11:17:27Z</time>
      </trkpt>
      <trkpt lat="43.56932" lon="6.15644">
        <ele>426.4</ele>
        <time>2013-12-18T11:17:35Z</time>
      </trkpt>
      <trkpt lat="43.56927" lon="6.15654">
        <ele>425.3</ele>
        <time>2013-12-18T11:17:43Z</time>
      </trkpt>
      <trkpt lat="43.56926" lon="6.15655">
        <ele>425.2</ele>
        <time>2013-12-18T11:17:44Z</time>
      </trkpt>
      <trkpt lat="43.56921" lon="6.15676">
        <ele>425.9</ele>
        <time>2013-12-18T11:17:57Z</time>
      </trkpt>
      <trkpt lat="43.56919" lon="6.15687">
        <ele>425.5</ele>
        <time>2013-12-18T11:18:04Z</time>
      </trkpt>
      <trkpt lat="43.56915" lon="6.15697">
        <ele>425.2</ele>
        <time>2013-12-18T11:18:11Z</time>
      </trkpt>
      <trkpt lat="43.56917" lon="6.15708">
        <ele>424.4</ele>
        <time>2013-12-18T11:18:32Z</time>
      </trkpt>
      <trkpt lat="43.56916" lon="6.1572">
        <ele>424.4</ele>
        <time>2013-12-18T11:18:40Z</time>
      </trkpt>
      <trkpt lat="43.56913" lon="6.15731">
        <ele>423.7</ele>
        <time>2013-12-18T11:18:46Z</time>
      </trkpt>
      <trkpt lat="43.56912" lon="6.15733">
        <ele>423.7</ele>
        <time>2013-12-18T11:18:47Z</time>
      </trkpt>
      <trkpt lat="43.56906" lon="6.15752">
        <ele>422.5</ele>
        <time>2013-12-18T11:19:00Z</time>
      </trkpt>
      <trkpt lat="43.56905" lon="6.15763">
        <ele>422.2</ele>
        <time>2013-12-18T11:19:07Z</time>
      </trkpt>
      <trkpt lat="43.56903" lon="6.15775">
        <ele>421.9</ele>
        <time>2013-12-18T11:19:17Z</time>
      </trkpt>
      <trkpt lat="43.56903" lon="6.15787">
        <ele>420.9</ele>
        <time>2013-12-18T11:19:30Z</time>
      </trkpt>
      <trkpt lat="43.56901" lon="6.15797">
        <ele>421</ele>
        <time>2013-12-18T11:19:37Z</time>
      </trkpt>
      <trkpt lat="43.56898" lon="6.15809">
        <ele>420.1</ele>
        <time>2013-12-18T11:19:45Z</time>
      </trkpt>
      <trkpt lat="43.56896" lon="6.15821">
        <ele>419.7</ele>
        <time>2013-12-18T11:19:52Z</time>
      </trkpt>
      <trkpt lat="43.56896" lon="6.15822">
        <ele>419.7</ele>
        <time>2013-12-18T11:19:53Z</time>
      </trkpt>
      <trkpt lat="43.56892" lon="6.15843">
        <ele>418.4</ele>
        <time>2013-12-18T11:20:08Z</time>
      </trkpt>
      <trkpt lat="43.5689" lon="6.15853">
        <ele>417.4</ele>
        <time>2013-12-18T11:20:16Z</time>
      </trkpt>
      <trkpt lat="43.56887" lon="6.15865">
        <ele>416.9</ele>
        <time>2013-12-18T11:20:37Z</time>
      </trkpt>
      <trkpt lat="43.56879" lon="6.15867">
        <ele>415.3</ele>
        <time>2013-12-18T11:22:10Z</time>
      </trkpt>
      <trkpt lat="43.56878" lon="6.15866">
        <ele>415</ele>
        <time>2013-12-18T11:22:11Z</time>
      </trkpt>
      <trkpt lat="43.56865" lon="6.15853">
        <ele>415.8</ele>
        <time>2013-12-18T11:22:33Z</time>
      </trkpt>
      <trkpt lat="43.56859" lon="6.15847">
        <ele>415.7</ele>
        <time>2013-12-18T11:22:38Z</time>
      </trkpt>
      <trkpt lat="43.56851" lon="6.1584">
        <ele>415.5</ele>
        <time>2013-12-18T11:22:44Z</time>
      </trkpt>
      <trkpt lat="43.56845" lon="6.15835">
        <ele>415.9</ele>
        <time>2013-12-18T11:22:49Z</time>
      </trkpt>
      <trkpt lat="43.56839" lon="6.15828">
        <ele>415.9</ele>
        <time>2013-12-18T11:22:57Z</time>
      </trkpt>
      <trkpt lat="43.56831" lon="6.15822">
        <ele>416.4</ele>
        <time>2013-12-18T11:23:07Z</time>
      </trkpt>
      <trkpt lat="43.56826" lon="6.15812">
        <ele>415.9</ele>
        <time>2013-12-18T11:23:15Z</time>
      </trkpt>
      <trkpt lat="43.56824" lon="6.15811">
        <ele>415.8</ele>
        <time>2013-12-18T11:23:16Z</time>
      </trkpt>
      <trkpt lat="43.5681" lon="6.15802">
        <ele>416.5</ele>
        <time>2013-12-18T11:23:38Z</time>
      </trkpt>
      <trkpt lat="43.56804" lon="6.15809">
        <ele>416.8</ele>
        <time>2013-12-18T11:23:55Z</time>
      </trkpt>
      <trkpt lat="43.56799" lon="6.1582">
        <ele>416.5</ele>
        <time>2013-12-18T11:24:06Z</time>
      </trkpt>
      <trkpt lat="43.56793" lon="6.15828">
        <ele>416.7</ele>
        <time>2013-12-18T11:24:16Z</time>
      </trkpt>
      <trkpt lat="43.56792" lon="6.15828">
        <ele>416.7</ele>
        <time>2013-12-18T11:24:17Z</time>
      </trkpt>
      <trkpt lat="43.56796" lon="6.15851">
        <ele>416.3</ele>
        <time>2013-12-18T11:24:42Z</time>
      </trkpt>
      <trkpt lat="43.56789" lon="6.15858">
        <ele>416.5</ele>
        <time>2013-12-18T11:25:03Z</time>
      </trkpt>
      <trkpt lat="43.56781" lon="6.15862">
        <ele>416.3</ele>
        <time>2013-12-18T11:25:12Z</time>
      </trkpt>
      <trkpt lat="43.56772" lon="6.15865">
        <ele>417</ele>
        <time>2013-12-18T11:25:19Z</time>
      </trkpt>
      <trkpt lat="43.56771" lon="6.15866">
        <ele>417.1</ele>
        <time>2013-12-18T11:25:20Z</time>
      </trkpt>
      <trkpt lat="43.56763" lon="6.15881">
        <ele>416.1</ele>
        <time>2013-12-18T11:25:41Z</time>
      </trkpt>
      <trkpt lat="43.5676" lon="6.15892">
        <ele>414.8</ele>
        <time>2013-12-18T11:28:24Z</time>
      </trkpt>
      <trkpt lat="43.56759" lon="6.15892">
        <ele>414.7</ele>
        <time>2013-12-18T11:28:25Z</time>
      </trkpt>
      <trkpt lat="43.56758" lon="6.15904">
        <ele>413.9</ele>
        <time>2013-12-18T11:29:38Z</time>
      </trkpt>
      <trkpt lat="43.56757" lon="6.15897">
        <ele>413</ele>
        <time>2013-12-18T11:30:49Z</time>
      </trkpt>
      <trkpt lat="43.56765" lon="6.15897">
        <ele>411.8</ele>
        <time>2013-12-18T14:11:00Z</time>
      </trkpt>
      <trkpt lat="43.56766" lon="6.15895">
        <ele>411.8</ele>
        <time>2013-12-18T14:11:01Z</time>
      </trkpt>
      <trkpt lat="43.56762" lon="6.15876">
        <ele>411.8</ele>
        <time>2013-12-18T14:11:18Z</time>
      </trkpt>
      <trkpt lat="43.56767" lon="6.15884">
        <ele>411.9</ele>
        <time>2013-12-18T14:11:45Z</time>
      </trkpt>
      <trkpt lat="43.56761" lon="6.15875">
        <ele>412</ele>
        <time>2013-12-18T14:12:06Z</time>
      </trkpt>
      <trkpt lat="43.56761" lon="6.15875">
        <ele>412</ele>
        <time>2013-12-18T14:12:07Z</time>
      </trkpt>
      <trkpt lat="43.56754" lon="6.15884">
        <ele>411.7</ele>
        <time>2013-12-18T14:13:11Z</time>
      </trkpt>
      <trkpt lat="43.56765" lon="6.15871">
        <ele>410.7</ele>
        <time>2013-12-18T14:16:02Z</time>
      </trkpt>
      <trkpt lat="43.56765" lon="6.1587">
        <ele>410.9</ele>
        <time>2013-12-18T14:16:03Z</time>
      </trkpt>
      <trkpt lat="43.56779" lon="6.15858">
        <ele>411.2</ele>
        <time>2013-12-18T14:16:27Z</time>
      </trkpt>
      <trkpt lat="43.56786" lon="6.15853">
        <ele>410.4</ele>
        <time>2013-12-18T14:16:36Z</time>
      </trkpt>
      <trkpt lat="43.56793" lon="6.15846">
        <ele>410.8</ele>
        <time>2013-12-18T14:16:48Z</time>
      </trkpt>
      <trkpt lat="43.56795" lon="6.15834">
        <ele>410.7</ele>
        <time>2013-12-18T14:16:57Z</time>
      </trkpt>
      <trkpt lat="43.56799" lon="6.15823">
        <ele>410.7</ele>
        <time>2013-12-18T14:17:14Z</time>
      </trkpt>
      <trkpt lat="43.56799" lon="6.15822">
        <ele>410.6</ele>
        <time>2013-12-18T14:17:15Z</time>
      </trkpt>
      <trkpt lat="43.56812" lon="6.15812">
        <ele>409.7</ele>
        <time>2013-12-18T14:17:37Z</time>
      </trkpt>
      <trkpt lat="43.56818" lon="6.1582">
        <ele>409.7</ele>
        <time>2013-12-18T14:17:50Z</time>
      </trkpt>
      <trkpt lat="43.56825" lon="6.15828">
        <ele>409.4</ele>
        <time>2013-12-18T14:18:02Z</time>
      </trkpt>
      <trkpt lat="43.56833" lon="6.15833">
        <ele>409</ele>
        <time>2013-12-18T14:18:10Z</time>
      </trkpt>
      <trkpt lat="43.56839" lon="6.15839">
        <ele>409.4</ele>
        <time>2013-12-18T14:18:18Z</time>
      </trkpt>
      <trkpt lat="43.56841" lon="6.1584">
        <ele>409.4</ele>
        <time>2013-12-18T14:18:19Z</time>
      </trkpt>
      <trkpt lat="43.56854" lon="6.15852">
        <ele>408.9</ele>
        <time>2013-12-18T14:18:33Z</time>
      </trkpt>
      <trkpt lat="43.56862" lon="6.15859">
        <ele>408.7</ele>
        <time>2013-12-18T14:18:41Z</time>
      </trkpt>
      <trkpt lat="43.5687" lon="6.15863">
        <ele>409.9</ele>
        <time>2013-12-18T14:18:49Z</time>
      </trkpt>
      <trkpt lat="43.56877" lon="6.1587">
        <ele>410.9</ele>
        <time>2013-12-18T14:19:01Z</time>
      </trkpt>
      <trkpt lat="43.56878" lon="6.15882">
        <ele>409</ele>
        <time>2013-12-18T14:19:57Z</time>
      </trkpt>
      <trkpt lat="43.56878" lon="6.15883">
        <ele>409.1</ele>
        <time>2013-12-18T14:19:58Z</time>
      </trkpt>
      <trkpt lat="43.56868" lon="6.159">
        <ele>409</ele>
        <time>2013-12-18T14:20:16Z</time>
      </trkpt>
      <trkpt lat="43.56864" lon="6.1591">
        <ele>408.4</ele>
        <time>2013-12-18T14:20:26Z</time>
      </trkpt>
      <trkpt lat="43.56862" lon="6.15922">
        <ele>408</ele>
        <time>2013-12-18T14:20:35Z</time>
      </trkpt>
      <trkpt lat="43.56858" lon="6.15931">
        <ele>407.4</ele>
        <time>2013-12-18T14:20:46Z</time>
      </trkpt>
      <trkpt lat="43.56853" lon="6.1594">
        <ele>407.3</ele>
        <time>2013-12-18T14:20:52Z</time>
      </trkpt>
      <trkpt lat="43.56851" lon="6.15951">
        <ele>406.8</ele>
        <time>2013-12-18T14:21:00Z</time>
      </trkpt>
      <trkpt lat="43.56851" lon="6.15952">
        <ele>406.9</ele>
        <time>2013-12-18T14:21:01Z</time>
      </trkpt>
      <trkpt lat="43.5685" lon="6.15973">
        <ele>406.4</ele>
        <time>2013-12-18T14:21:15Z</time>
      </trkpt>
      <trkpt lat="43.5685" lon="6.15984">
        <ele>405.5</ele>
        <time>2013-12-18T14:21:23Z</time>
      </trkpt>
      <trkpt lat="43.56852" lon="6.15996">
        <ele>404.8</ele>
        <time>2013-12-18T14:21:30Z</time>
      </trkpt>
      <trkpt lat="43.56854" lon="6.16007">
        <ele>404.3</ele>
        <time>2013-12-18T14:21:38Z</time>
      </trkpt>
      <trkpt lat="43.56856" lon="6.16018">
        <ele>403.5</ele>
        <time>2013-12-18T14:21:45Z</time>
      </trkpt>
      <trkpt lat="43.56857" lon="6.16029">
        <ele>402.3</ele>
        <time>2013-12-18T14:21:55Z</time>
      </trkpt>
      <trkpt lat="43.56861" lon="6.16039">
        <ele>402.2</ele>
        <time>2013-12-18T14:22:02Z</time>
      </trkpt>
      <trkpt lat="43.56861" lon="6.16041">
        <ele>402.6</ele>
        <time>2013-12-18T14:22:03Z</time>
      </trkpt>
      <trkpt lat="43.56861" lon="6.16064">
        <ele>401.5</ele>
        <time>2013-12-18T14:22:19Z</time>
      </trkpt>
      <trkpt lat="43.56864" lon="6.16075">
        <ele>401.4</ele>
        <time>2013-12-18T14:22:28Z</time>
      </trkpt>
      <trkpt lat="43.56865" lon="6.16087">
        <ele>399.9</ele>
        <time>2013-12-18T14:22:36Z</time>
      </trkpt>
      <trkpt lat="43.56865" lon="6.16099">
        <ele>399.7</ele>
        <time>2013-12-18T14:22:45Z</time>
      </trkpt>
      <trkpt lat="43.56866" lon="6.16111">
        <ele>399.6</ele>
        <time>2013-12-18T14:22:54Z</time>
      </trkpt>
      <trkpt lat="43.56864" lon="6.16123">
        <ele>398</ele>
        <time>2013-12-18T14:23:02Z</time>
      </trkpt>
      <trkpt lat="43.56862" lon="6.16135">
        <ele>398</ele>
        <time>2013-12-18T14:23:11Z</time>
      </trkpt>
      <trkpt lat="43.56862" lon="6.16136">
        <ele>397.8</ele>
        <time>2013-12-18T14:23:12Z</time>
      </trkpt>
      <trkpt lat="43.56856" lon="6.16157">
        <ele>396.5</ele>
        <time>2013-12-18T14:23:26Z</time>
      </trkpt>
      <trkpt lat="43.56855" lon="6.16169">
        <ele>395.5</ele>
        <time>2013-12-18T14:23:34Z</time>
      </trkpt>
      <trkpt lat="43.56852" lon="6.16181">
        <ele>396.9</ele>
        <time>2013-12-18T14:23:42Z</time>
      </trkpt>
      <trkpt lat="43.56849" lon="6.16191">
        <ele>397.5</ele>
        <time>2013-12-18T14:23:50Z</time>
      </trkpt>
      <trkpt lat="43.56844" lon="6.16201">
        <ele>397.2</ele>
        <time>2013-12-18T14:23:59Z</time>
      </trkpt>
      <trkpt lat="43.56842" lon="6.16213">
        <ele>395.8</ele>
        <time>2013-12-18T14:24:07Z</time>
      </trkpt>
      <trkpt lat="43.56844" lon="6.16224">
        <ele>395.8</ele>
        <time>2013-12-18T14:24:15Z</time>
      </trkpt>
      <trkpt lat="43.56845" lon="6.16226">
        <ele>395.7</ele>
        <time>2013-12-18T14:24:16Z</time>
      </trkpt>
      <trkpt lat="43.56853" lon="6.16243">
        <ele>396.5</ele>
        <time>2013-12-18T14:24:27Z</time>
      </trkpt>
      <trkpt lat="43.56856" lon="6.16254">
        <ele>395.4</ele>
        <time>2013-12-18T14:24:33Z</time>
      </trkpt>
      <trkpt lat="43.5686" lon="6.16265">
        <ele>395.6</ele>
        <time>2013-12-18T14:24:40Z</time>
      </trkpt>
      <trkpt lat="43.56862" lon="6.16275">
        <ele>394.2</ele>
        <time>2013-12-18T14:24:48Z</time>
      </trkpt>
      <trkpt lat="43.56864" lon="6.16286">
        <ele>393.8</ele>
        <time>2013-12-18T14:24:55Z</time>
      </trkpt>
      <trkpt lat="43.56863" lon="6.16297">
        <ele>394.3</ele>
        <time>2013-12-18T14:25:00Z</time>
      </trkpt>
      <trkpt lat="43.56862" lon="6.16308">
        <ele>393</ele>
        <time>2013-12-18T14:25:07Z</time>
      </trkpt>
      <trkpt lat="43.56859" lon="6.1632">
        <ele>392.4</ele>
        <time>2013-12-18T14:25:15Z</time>
      </trkpt>
      <trkpt lat="43.56859" lon="6.16331">
        <ele>393.2</ele>
        <time>2013-12-18T14:25:22Z</time>
      </trkpt>
      <trkpt lat="43.56859" lon="6.16332">
        <ele>393.7</ele>
        <time>2013-12-18T14:25:23Z</time>
      </trkpt>
      <trkpt lat="43.56858" lon="6.16354">
        <ele>392.7</ele>
        <time>2013-12-18T14:25:36Z</time>
      </trkpt>
      <trkpt lat="43.56856" lon="6.16365">
        <ele>391.2</ele>
        <time>2013-12-18T14:25:42Z</time>
      </trkpt>
      <trkpt lat="43.56854" lon="6.16376">
        <ele>391.5</ele>
        <time>2013-12-18T14:25:49Z</time>
      </trkpt>
      <trkpt lat="43.56851" lon="6.16388">
        <ele>391.9</ele>
        <time>2013-12-18T14:25:56Z</time>
      </trkpt>
      <trkpt lat="43.56846" lon="6.16397">
        <ele>390.9</ele>
        <time>2013-12-18T14:26:04Z</time>
      </trkpt>
      <trkpt lat="43.56839" lon="6.16405">
        <ele>390.9</ele>
        <time>2013-12-18T14:26:12Z</time>
      </trkpt>
      <trkpt lat="43.56835" lon="6.16416">
        <ele>389.8</ele>
        <time>2013-12-18T14:27:16Z</time>
      </trkpt>
      <trkpt lat="43.56835" lon="6.16416">
        <ele>389.9</ele>
        <time>2013-12-18T14:27:17Z</time>
      </trkpt>
      <trkpt lat="43.56841" lon="6.16437">
        <ele>388</ele>
        <time>2013-12-18T14:27:37Z</time>
      </trkpt>
      <trkpt lat="43.56841" lon="6.16449">
        <ele>389</ele>
        <time>2013-12-18T14:27:44Z</time>
      </trkpt>
      <trkpt lat="43.56842" lon="6.1646">
        <ele>389.7</ele>
        <time>2013-12-18T14:27:51Z</time>
      </trkpt>
      <trkpt lat="43.56843" lon="6.16472">
        <ele>389.8</ele>
        <time>2013-12-18T14:27:59Z</time>
      </trkpt>
      <trkpt lat="43.56844" lon="6.16482">
        <ele>388.7</ele>
        <time>2013-12-18T14:28:06Z</time>
      </trkpt>
      <trkpt lat="43.56844" lon="6.16495">
        <ele>389</ele>
        <time>2013-12-18T14:28:13Z</time>
      </trkpt>
      <trkpt lat="43.56844" lon="6.16505">
        <ele>389.2</ele>
        <time>2013-12-18T14:28:20Z</time>
      </trkpt>
      <trkpt lat="43.56844" lon="6.16507">
        <ele>389.1</ele>
        <time>2013-12-18T14:28:21Z</time>
      </trkpt>
      <trkpt lat="43.56845" lon="6.16527">
        <ele>388.5</ele>
        <time>2013-12-18T14:28:34Z</time>
      </trkpt>
      <trkpt lat="43.56847" lon="6.16538">
        <ele>389.6</ele>
        <time>2013-12-18T14:28:43Z</time>
      </trkpt>
      <trkpt lat="43.56848" lon="6.1655">
        <ele>389.6</ele>
        <time>2013-12-18T14:28:52Z</time>
      </trkpt>
      <trkpt lat="43.56853" lon="6.16559">
        <ele>390.8</ele>
        <time>2013-12-18T14:29:05Z</time>
      </trkpt>
      <trkpt lat="43.56853" lon="6.16571">
        <ele>390.5</ele>
        <time>2013-12-18T14:29:15Z</time>
      </trkpt>
      <trkpt lat="43.56853" lon="6.16582">
        <ele>390.3</ele>
        <time>2013-12-18T14:29:24Z</time>
      </trkpt>
      <trkpt lat="43.56852" lon="6.16584">
        <ele>390.4</ele>
        <time>2013-12-18T14:29:25Z</time>
      </trkpt>
      <trkpt lat="43.56845" lon="6.16603">
        <ele>390.4</ele>
        <time>2013-12-18T14:29:41Z</time>
      </trkpt>
      <trkpt lat="43.5684" lon="6.16613">
        <ele>390.3</ele>
        <time>2013-12-18T14:29:49Z</time>
      </trkpt>
      <trkpt lat="43.56838" lon="6.16624">
        <ele>391</ele>
        <time>2013-12-18T14:29:58Z</time>
      </trkpt>
      <trkpt lat="43.56838" lon="6.16636">
        <ele>390.4</ele>
        <time>2013-12-18T14:30:25Z</time>
      </trkpt>
      <trkpt lat="43.56838" lon="6.16637">
        <ele>389.8</ele>
        <time>2013-12-18T14:30:26Z</time>
      </trkpt>
      <trkpt lat="43.5683" lon="6.16657">
        <ele>390.6</ele>
        <time>2013-12-18T14:31:08Z</time>
      </trkpt>
      <trkpt lat="43.56822" lon="6.16663">
        <ele>391.2</ele>
        <time>2013-12-18T14:31:19Z</time>
      </trkpt>
      <trkpt lat="43.56817" lon="6.16673">
        <ele>389.8</ele>
        <time>2013-12-18T14:31:32Z</time>
      </trkpt>
      <trkpt lat="43.56816" lon="6.16673">
        <ele>389.8</ele>
        <time>2013-12-18T14:31:33Z</time>
      </trkpt>
      <trkpt lat="43.5681" lon="6.16694">
        <ele>388.9</ele>
        <time>2013-12-18T14:32:39Z</time>
      </trkpt>
      <trkpt lat="43.56809" lon="6.16694">
        <ele>388.3</ele>
        <time>2013-12-18T14:32:40Z</time>
      </trkpt>
      <trkpt lat="43.56798" lon="6.16712">
        <ele>387.8</ele>
        <time>2013-12-18T14:32:59Z</time>
      </trkpt>
      <trkpt lat="43.56794" lon="6.16722">
        <ele>387.6</ele>
        <time>2013-12-18T14:33:09Z</time>
      </trkpt>
      <trkpt lat="43.5679" lon="6.16732">
        <ele>388</ele>
        <time>2013-12-18T14:33:18Z</time>
      </trkpt>
      <trkpt lat="43.56788" lon="6.16744">
        <ele>387.3</ele>
        <time>2013-12-18T14:33:31Z</time>
      </trkpt>
      <trkpt lat="43.56784" lon="6.16754">
        <ele>386.7</ele>
        <time>2013-12-18T14:33:41Z</time>
      </trkpt>
      <trkpt lat="43.56783" lon="6.16756">
        <ele>386.7</ele>
        <time>2013-12-18T14:33:42Z</time>
      </trkpt>
      <trkpt lat="43.56782" lon="6.16777">
        <ele>386.3</ele>
        <time>2013-12-18T14:33:56Z</time>
      </trkpt>
      <trkpt lat="43.5678" lon="6.16788">
        <ele>386.4</ele>
        <time>2013-12-18T14:34:02Z</time>
      </trkpt>
      <trkpt lat="43.5678" lon="6.16799">
        <ele>386.3</ele>
        <time>2013-12-18T14:34:10Z</time>
      </trkpt>
      <trkpt lat="43.56781" lon="6.16811">
        <ele>385.7</ele>
        <time>2013-12-18T14:34:17Z</time>
      </trkpt>
      <trkpt lat="43.56783" lon="6.16822">
        <ele>385.6</ele>
        <time>2013-12-18T14:34:26Z</time>
      </trkpt>
      <trkpt lat="43.56785" lon="6.16833">
        <ele>386.3</ele>
        <time>2013-12-18T14:34:33Z</time>
      </trkpt>
      <trkpt lat="43.56788" lon="6.16845">
        <ele>385.6</ele>
        <time>2013-12-18T14:34:42Z</time>
      </trkpt>
      <trkpt lat="43.56788" lon="6.16846">
        <ele>385.6</ele>
        <time>2013-12-18T14:34:43Z</time>
      </trkpt>
      <trkpt lat="43.56791" lon="6.16867">
        <ele>384.9</ele>
        <time>2013-12-18T14:34:57Z</time>
      </trkpt>
      <trkpt lat="43.56792" lon="6.16879">
        <ele>385.5</ele>
        <time>2013-12-18T14:35:05Z</time>
      </trkpt>
      <trkpt lat="43.56794" lon="6.1689">
        <ele>384.8</ele>
        <time>2013-12-18T14:35:13Z</time>
      </trkpt>
      <trkpt lat="43.56798" lon="6.169">
        <ele>385.4</ele>
        <time>2013-12-18T14:35:21Z</time>
      </trkpt>
      <trkpt lat="43.56801" lon="6.16911">
        <ele>386.7</ele>
        <time>2013-12-18T14:35:30Z</time>
      </trkpt>
      <trkpt lat="43.56805" lon="6.16922">
        <ele>387.8</ele>
        <time>2013-12-18T14:35:40Z</time>
      </trkpt>
      <trkpt lat="43.56809" lon="6.16932">
        <ele>386.5</ele>
        <time>2013-12-18T14:35:48Z</time>
      </trkpt>
      <trkpt lat="43.56809" lon="6.16933">
        <ele>386.5</ele>
        <time>2013-12-18T14:35:49Z</time>
      </trkpt>
      <trkpt lat="43.56814" lon="6.16955">
        <ele>387.2</ele>
        <time>2013-12-18T14:36:04Z</time>
      </trkpt>
      <trkpt lat="43.56815" lon="6.16967">
        <ele>387</ele>
        <time>2013-12-18T14:36:11Z</time>
      </trkpt>
      <trkpt lat="43.56815" lon="6.16978">
        <ele>387.4</ele>
        <time>2013-12-18T14:36:18Z</time>
      </trkpt>
      <trkpt lat="43.5682" lon="6.16988">
        <ele>385.9</ele>
        <time>2013-12-18T14:36:29Z</time>
      </trkpt>
      <trkpt lat="43.56822" lon="6.16999">
        <ele>386.5</ele>
        <time>2013-12-18T14:36:38Z</time>
      </trkpt>
      <trkpt lat="43.56824" lon="6.1701">
        <ele>386.4</ele>
        <time>2013-12-18T14:36:45Z</time>
      </trkpt>
      <trkpt lat="43.56826" lon="6.17021">
        <ele>386.2</ele>
        <time>2013-12-18T14:36:52Z</time>
      </trkpt>
      <trkpt lat="43.56825" lon="6.17023">
        <ele>386.2</ele>
        <time>2013-12-18T14:36:53Z</time>
      </trkpt>
      <trkpt lat="43.56833" lon="6.17043">
        <ele>385.9</ele>
        <time>2013-12-18T14:37:08Z</time>
      </trkpt>
      <trkpt lat="43.56833" lon="6.17054">
        <ele>386</ele>
        <time>2013-12-18T14:37:15Z</time>
      </trkpt>
      <trkpt lat="43.56838" lon="6.17065">
        <ele>386.3</ele>
        <time>2013-12-18T14:37:26Z</time>
      </trkpt>
      <trkpt lat="43.5684" lon="6.17076">
        <ele>386.3</ele>
        <time>2013-12-18T14:37:34Z</time>
      </trkpt>
      <trkpt lat="43.56846" lon="6.17085">
        <ele>385.9</ele>
        <time>2013-12-18T14:37:42Z</time>
      </trkpt>
      <trkpt lat="43.56849" lon="6.17096">
        <ele>385.8</ele>
        <time>2013-12-18T14:37:50Z</time>
      </trkpt>
      <trkpt lat="43.56853" lon="6.17106">
        <ele>385.9</ele>
        <time>2013-12-18T14:37:59Z</time>
      </trkpt>
      <trkpt lat="43.56853" lon="6.17108">
        <ele>385.8</ele>
        <time>2013-12-18T14:38:00Z</time>
      </trkpt>
      <trkpt lat="43.5686" lon="6.17128">
        <ele>385.9</ele>
        <time>2013-12-18T14:38:17Z</time>
      </trkpt>
      <trkpt lat="43.56863" lon="6.17139">
        <ele>386</ele>
        <time>2013-12-18T14:38:25Z</time>
      </trkpt>
      <trkpt lat="43.56867" lon="6.17149">
        <ele>385.7</ele>
        <time>2013-12-18T14:38:32Z</time>
      </trkpt>
      <trkpt lat="43.56869" lon="6.17161">
        <ele>385.6</ele>
        <time>2013-12-18T14:38:38Z</time>
      </trkpt>
      <trkpt lat="43.56873" lon="6.1717">
        <ele>385.7</ele>
        <time>2013-12-18T14:38:45Z</time>
      </trkpt>
      <trkpt lat="43.56876" lon="6.17181">
        <ele>385.4</ele>
        <time>2013-12-18T14:38:54Z</time>
      </trkpt>
      <trkpt lat="43.56878" lon="6.17192">
        <ele>385.4</ele>
        <time>2013-12-18T14:39:03Z</time>
      </trkpt>
      <trkpt lat="43.56878" lon="6.17194">
        <ele>385.3</ele>
        <time>2013-12-18T14:39:04Z</time>
      </trkpt>
      <trkpt lat="43.5688" lon="6.17216">
        <ele>384.7</ele>
        <time>2013-12-18T14:39:19Z</time>
      </trkpt>
      <trkpt lat="43.56884" lon="6.17227">
        <ele>384.8</ele>
        <time>2013-12-18T14:39:27Z</time>
      </trkpt>
      <trkpt lat="43.56888" lon="6.17237">
        <ele>384.7</ele>
        <time>2013-12-18T14:39:34Z</time>
      </trkpt>
      <trkpt lat="43.56887" lon="6.17249">
        <ele>384.6</ele>
        <time>2013-12-18T14:39:41Z</time>
      </trkpt>
      <trkpt lat="43.56888" lon="6.1726">
        <ele>384.9</ele>
        <time>2013-12-18T14:39:49Z</time>
      </trkpt>
      <trkpt lat="43.5689" lon="6.17272">
        <ele>384.6</ele>
        <time>2013-12-18T14:39:56Z</time>
      </trkpt>
      <trkpt lat="43.56887" lon="6.17283">
        <ele>384.5</ele>
        <time>2013-12-18T14:40:03Z</time>
      </trkpt>
      <trkpt lat="43.56886" lon="6.17295">
        <ele>384.1</ele>
        <time>2013-12-18T14:40:11Z</time>
      </trkpt>
      <trkpt lat="43.56886" lon="6.17297">
        <ele>384</ele>
        <time>2013-12-18T14:40:12Z</time>
      </trkpt>
      <trkpt lat="43.56883" lon="6.17318">
        <ele>384.8</ele>
        <time>2013-12-18T14:40:26Z</time>
      </trkpt>
      <trkpt lat="43.56882" lon="6.17329">
        <ele>384.9</ele>
        <time>2013-12-18T14:40:35Z</time>
      </trkpt>
      <trkpt lat="43.5688" lon="6.1734">
        <ele>385.4</ele>
        <time>2013-12-18T14:40:42Z</time>
      </trkpt>
      <trkpt lat="43.5688" lon="6.17352">
        <ele>384.9</ele>
        <time>2013-12-18T14:40:51Z</time>
      </trkpt>
      <trkpt lat="43.56881" lon="6.17364">
        <ele>384.5</ele>
        <time>2013-12-18T14:40:58Z</time>
      </trkpt>
      <trkpt lat="43.56878" lon="6.17376">
        <ele>384.6</ele>
        <time>2013-12-18T14:41:06Z</time>
      </trkpt>
      <trkpt lat="43.56876" lon="6.17388">
        <ele>384.5</ele>
        <time>2013-12-18T14:41:15Z</time>
      </trkpt>
      <trkpt lat="43.56875" lon="6.1739">
        <ele>384.6</ele>
        <time>2013-12-18T14:41:16Z</time>
      </trkpt>
      <trkpt lat="43.56869" lon="6.17409">
        <ele>384.5</ele>
        <time>2013-12-18T14:41:29Z</time>
      </trkpt>
      <trkpt lat="43.56868" lon="6.17419">
        <ele>384</ele>
        <time>2013-12-18T14:41:36Z</time>
      </trkpt>
      <trkpt lat="43.56866" lon="6.17431">
        <ele>383.5</ele>
        <time>2013-12-18T14:41:43Z</time>
      </trkpt>
      <trkpt lat="43.56865" lon="6.17442">
        <ele>383.5</ele>
        <time>2013-12-18T14:41:51Z</time>
      </trkpt>
      <trkpt lat="43.56861" lon="6.17451">
        <ele>383.8</ele>
        <time>2013-12-18T14:41:57Z</time>
      </trkpt>
      <trkpt lat="43.56857" lon="6.17461">
        <ele>383.1</ele>
        <time>2013-12-18T14:42:04Z</time>
      </trkpt>
      <trkpt lat="43.56854" lon="6.17471">
        <ele>382.6</ele>
        <time>2013-12-18T14:42:11Z</time>
      </trkpt>
      <trkpt lat="43.56854" lon="6.17483">
        <ele>382.1</ele>
        <time>2013-12-18T14:43:10Z</time>
      </trkpt>
      <trkpt lat="43.56854" lon="6.17484">
        <ele>381.9</ele>
        <time>2013-12-18T14:43:11Z</time>
      </trkpt>
      <trkpt lat="43.5685" lon="6.17506">
        <ele>382.7</ele>
        <time>2013-12-18T14:43:30Z</time>
      </trkpt>
      <trkpt lat="43.56848" lon="6.17517">
        <ele>382.2</ele>
        <time>2013-12-18T14:43:37Z</time>
      </trkpt>
      <trkpt lat="43.56844" lon="6.17528">
        <ele>381.3</ele>
        <time>2013-12-18T14:43:44Z</time>
      </trkpt>
      <trkpt lat="43.5684" lon="6.17537">
        <ele>381.6</ele>
        <time>2013-12-18T14:43:52Z</time>
      </trkpt>
      <trkpt lat="43.56839" lon="6.17548">
        <ele>382.3</ele>
        <time>2013-12-18T14:44:00Z</time>
      </trkpt>
      <trkpt lat="43.56836" lon="6.17559">
        <ele>381.7</ele>
        <time>2013-12-18T14:44:08Z</time>
      </trkpt>
      <trkpt lat="43.56834" lon="6.17571">
        <ele>381.6</ele>
        <time>2013-12-18T14:44:16Z</time>
      </trkpt>
      <trkpt lat="43.56834" lon="6.17572">
        <ele>381.6</ele>
        <time>2013-12-18T14:44:17Z</time>
      </trkpt>
      <trkpt lat="43.5683" lon="6.17592">
        <ele>382.3</ele>
        <time>2013-12-18T14:44:29Z</time>
      </trkpt>
      <trkpt lat="43.5683" lon="6.17603">
        <ele>381.7</ele>
        <time>2013-12-18T14:44:37Z</time>
      </trkpt>
      <trkpt lat="43.56834" lon="6.17614">
        <ele>381.4</ele>
        <time>2013-12-18T14:44:43Z</time>
      </trkpt>
      <trkpt lat="43.56835" lon="6.17626">
        <ele>380.8</ele>
        <time>2013-12-18T14:44:51Z</time>
      </trkpt>
      <trkpt lat="43.56839" lon="6.17635">
        <ele>381.3</ele>
        <time>2013-12-18T14:44:57Z</time>
      </trkpt>
      <trkpt lat="43.56841" lon="6.17647">
        <ele>380.9</ele>
        <time>2013-12-18T14:45:05Z</time>
      </trkpt>
      <trkpt lat="43.56841" lon="6.17658">
        <ele>381</ele>
        <time>2013-12-18T14:45:14Z</time>
      </trkpt>
      <trkpt lat="43.56841" lon="6.17671">
        <ele>381.2</ele>
        <time>2013-12-18T14:45:22Z</time>
      </trkpt>
      <trkpt lat="43.56841" lon="6.17672">
        <ele>381.1</ele>
        <time>2013-12-18T14:45:23Z</time>
      </trkpt>
      <trkpt lat="43.56844" lon="6.17695">
        <ele>381</ele>
        <time>2013-12-18T14:45:40Z</time>
      </trkpt>
      <trkpt lat="43.56847" lon="6.17706">
        <ele>380.6</ele>
        <time>2013-12-18T14:45:49Z</time>
      </trkpt>
      <trkpt lat="43.5685" lon="6.17716">
        <ele>380.5</ele>
        <time>2013-12-18T14:45:57Z</time>
      </trkpt>
      <trkpt lat="43.56852" lon="6.17727">
        <ele>380.1</ele>
        <time>2013-12-18T14:46:05Z</time>
      </trkpt>
      <trkpt lat="43.56856" lon="6.17738">
        <ele>380.5</ele>
        <time>2013-12-18T14:46:14Z</time>
      </trkpt>
      <trkpt lat="43.5686" lon="6.17747">
        <ele>381.1</ele>
        <time>2013-12-18T14:46:22Z</time>
      </trkpt>
      <trkpt lat="43.56864" lon="6.17758">
        <ele>380.7</ele>
        <time>2013-12-18T14:46:30Z</time>
      </trkpt>
      <trkpt lat="43.56865" lon="6.17759">
        <ele>380.6</ele>
        <time>2013-12-18T14:46:31Z</time>
      </trkpt>
      <trkpt lat="43.56872" lon="6.17778">
        <ele>380.3</ele>
        <time>2013-12-18T14:46:47Z</time>
      </trkpt>
      <trkpt lat="43.56876" lon="6.17787">
        <ele>380.7</ele>
        <time>2013-12-18T14:46:53Z</time>
      </trkpt>
      <trkpt lat="43.56879" lon="6.17797">
        <ele>380.3</ele>
        <time>2013-12-18T14:47:00Z</time>
      </trkpt>
      <trkpt lat="43.56885" lon="6.17806">
        <ele>379.9</ele>
        <time>2013-12-18T14:47:09Z</time>
      </trkpt>
      <trkpt lat="43.56889" lon="6.17815">
        <ele>380.3</ele>
        <time>2013-12-18T14:47:18Z</time>
      </trkpt>
      <trkpt lat="43.56894" lon="6.17824">
        <ele>380</ele>
        <time>2013-12-18T14:47:23Z</time>
      </trkpt>
      <trkpt lat="43.56899" lon="6.17834">
        <ele>379.2</ele>
        <time>2013-12-18T14:47:30Z</time>
      </trkpt>
      <trkpt lat="43.56904" lon="6.17843">
        <ele>379.2</ele>
        <time>2013-12-18T14:47:36Z</time>
      </trkpt>
      <trkpt lat="43.56904" lon="6.17844">
        <ele>379.3</ele>
        <time>2013-12-18T14:47:37Z</time>
      </trkpt>
      <trkpt lat="43.56912" lon="6.17864">
        <ele>379.8</ele>
        <time>2013-12-18T14:47:52Z</time>
      </trkpt>
      <trkpt lat="43.56914" lon="6.17876">
        <ele>379.3</ele>
        <time>2013-12-18T14:48:00Z</time>
      </trkpt>
      <trkpt lat="43.56917" lon="6.17887">
        <ele>379.4</ele>
        <time>2013-12-18T14:48:08Z</time>
      </trkpt>
      <trkpt lat="43.56919" lon="6.17898">
        <ele>379.2</ele>
        <time>2013-12-18T14:48:15Z</time>
      </trkpt>
      <trkpt lat="43.56919" lon="6.1791">
        <ele>379</ele>
        <time>2013-12-18T14:48:24Z</time>
      </trkpt>
      <trkpt lat="43.5692" lon="6.17921">
        <ele>378.7</ele>
        <time>2013-12-18T14:48:32Z</time>
      </trkpt>
      <trkpt lat="43.56921" lon="6.17933">
        <ele>378.8</ele>
        <time>2013-12-18T14:48:41Z</time>
      </trkpt>
      <trkpt lat="43.56921" lon="6.17935">
        <ele>378.8</ele>
        <time>2013-12-18T14:48:42Z</time>
      </trkpt>
      <trkpt lat="43.56919" lon="6.17956">
        <ele>378.7</ele>
        <time>2013-12-18T14:48:57Z</time>
      </trkpt>
      <trkpt lat="43.5692" lon="6.17968">
        <ele>378.6</ele>
        <time>2013-12-18T14:49:06Z</time>
      </trkpt>
      <trkpt lat="43.56921" lon="6.17979">
        <ele>378.7</ele>
        <time>2013-12-18T14:49:15Z</time>
      </trkpt>
      <trkpt lat="43.5692" lon="6.17991">
        <ele>378.7</ele>
        <time>2013-12-18T14:49:26Z</time>
      </trkpt>
      <trkpt lat="43.56918" lon="6.18003">
        <ele>378.6</ele>
        <time>2013-12-18T14:49:32Z</time>
      </trkpt>
      <trkpt lat="43.56915" lon="6.18014">
        <ele>378.7</ele>
        <time>2013-12-18T14:49:39Z</time>
      </trkpt>
      <trkpt lat="43.56915" lon="6.18025">
        <ele>378.8</ele>
        <time>2013-12-18T14:49:48Z</time>
      </trkpt>
      <trkpt lat="43.56915" lon="6.18027">
        <ele>378.6</ele>
        <time>2013-12-18T14:49:49Z</time>
      </trkpt>
      <trkpt lat="43.56912" lon="6.18048">
        <ele>378.8</ele>
        <time>2013-12-18T14:50:02Z</time>
      </trkpt>
      <trkpt lat="43.56911" lon="6.1806">
        <ele>378.2</ele>
        <time>2013-12-18T14:50:10Z</time>
      </trkpt>
      <trkpt lat="43.56908" lon="6.1807">
        <ele>378</ele>
        <time>2013-12-18T14:50:17Z</time>
      </trkpt>
      <trkpt lat="43.56903" lon="6.18078">
        <ele>377.9</ele>
        <time>2013-12-18T14:50:22Z</time>
      </trkpt>
      <trkpt lat="43.56899" lon="6.18088">
        <ele>377.8</ele>
        <time>2013-12-18T14:50:29Z</time>
      </trkpt>
      <trkpt lat="43.56895" lon="6.18099">
        <ele>377.7</ele>
        <time>2013-12-18T14:50:38Z</time>
      </trkpt>
      <trkpt lat="43.56889" lon="6.18106">
        <ele>377.9</ele>
        <time>2013-12-18T14:50:48Z</time>
      </trkpt>
      <trkpt lat="43.56882" lon="6.18113">
        <ele>377.6</ele>
        <time>2013-12-18T14:50:56Z</time>
      </trkpt>
      <trkpt lat="43.56882" lon="6.18114">
        <ele>377.6</ele>
        <time>2013-12-18T14:50:57Z</time>
      </trkpt>
      <trkpt lat="43.56868" lon="6.18127">
        <ele>377.3</ele>
        <time>2013-12-18T14:51:12Z</time>
      </trkpt>
      <trkpt lat="43.56863" lon="6.18135">
        <ele>377</ele>
        <time>2013-12-18T14:51:18Z</time>
      </trkpt>
      <trkpt lat="43.56856" lon="6.18142">
        <ele>377.4</ele>
        <time>2013-12-18T14:51:24Z</time>
      </trkpt>
      <trkpt lat="43.5685" lon="6.18149">
        <ele>377.1</ele>
        <time>2013-12-18T14:51:33Z</time>
      </trkpt>
      <trkpt lat="43.56842" lon="6.18153">
        <ele>377</ele>
        <time>2013-12-18T14:51:44Z</time>
      </trkpt>
      <trkpt lat="43.56833" lon="6.18154">
        <ele>377.4</ele>
        <time>2013-12-18T14:51:54Z</time>
      </trkpt>
      <trkpt lat="43.56828" lon="6.18164">
        <ele>377</ele>
        <time>2013-12-18T14:52:41Z</time>
      </trkpt>
      <trkpt lat="43.56828" lon="6.18164">
        <ele>377.1</ele>
        <time>2013-12-18T14:52:42Z</time>
      </trkpt>
      <trkpt lat="43.56832" lon="6.1816">
        <ele>377.7</ele>
        <time>2013-12-18T14:52:57Z</time>
      </trkpt>
    </trkseg>
  </trk>
</gpx>